Darstellungsparameter: Aktuell verwendete Einstellungen:
Skalierung der Graphiken ... ?
xyx+y,   Skalierungsfaktor:      Skalierung: Modus: x, Faktor: 1
Darstellungszeitraum ... ?
Vom - - bis: - -   Zeitraum: 11.04.2020 - 15.04.2020
Min/Max/Avg-Anzeige ... ?
Zeige MMA aktuell
Zeige MMA Monat
Zeige MMA alles
Zeige --A aktuell
Zeige --A Monat
Zeige --A alles
Keine MMA-Anzeige
MMA:
Average (ber die Originaldaten)
MMA-Basis: 11.04.2020 - 15.04.2020
Quicknavigation für Darstellung... ?
Tage:      1T, 2T, 3T, 5T -1T -2T -3T -5T +1T +2T +3T +5T
Wochen: 1W, 2W, 3W -1W -2W -3W +1W +2W +3W
Monate: 1M, 3M, 6M -1M -3M -6M +1M +3M +6M
Jahre:    1J, 3J, 5J, 10J -1J -3J -5J -10J +1J +3J +5J +10J
Nutze für die Darstellung ... ?
Originaldaten oder Mittelwerte auf ...
Stundenbasis Tagesbasis Wochenbasis
Monatsbasis Jahresbasis      Datenbasis: Original-Daten
Darstellen als:
Statistik (Auto) Statistik J:M      Darstellung:
Zur Graphik,    zurück zur Übersicht aller Sensoren.
 
Tabellarische Datenbersicht: ?
 
Sensor: Nr:Datum:Temp:Abs-Feuchte:Windchill:Wind:
Aussen-T/F 1 11-04-2020 00:00:00 11.8 C 7.37 g/m*3 11.8 C 3.2 km/h
2 11-04-2020 00:05:00 11.7 C 7.32 g/m*3 11.7 C 4.8 km/h
3 11-04-2020 00:10:00 11.5 C 7.33 g/m*3 11.5 C 3.2 km/h
4 11-04-2020 00:15:00 11.4 C 7.29 g/m*3 11.4 C 0 km/h
5 11-04-2020 00:20:00 11.3 C 7.24 g/m*3 11.3 C 4.8 km/h
6 11-04-2020 00:25:00 11.2 C 7.3 g/m*3 11.2 C 4.8 km/h
7 11-04-2020 00:30:00 11.1 C 7.25 g/m*3 11.1 C 1.6 km/h
8 11-04-2020 00:35:00 11 C 7.21 g/m*3 11 C 1.6 km/h
9 11-04-2020 00:40:00 10.8 C 7.22 g/m*3 10.8 C 3.2 km/h
10 11-04-2020 00:45:00 10.8 C 7.12 g/m*3 10.8 C 0 km/h
11 11-04-2020 00:50:00 10.7 C 7.17 g/m*3 10.7 C 0 km/h
12 11-04-2020 00:55:00 10.7 C 7.07 g/m*3 10.7 C 1.6 km/h
13 11-04-2020 01:00:00 10.6 C 7.03 g/m*3 10.6 C 0 km/h
14 11-04-2020 01:05:00 10.5 C 6.98 g/m*3 10.5 C 0 km/h
15 11-04-2020 01:10:00 10.4 C 6.94 g/m*3 10.4 C 0 km/h
16 11-04-2020 01:15:00 10.3 C 6.99 g/m*3 10.3 C 0 km/h
17 11-04-2020 01:20:00 10.2 C 6.95 g/m*3 10.2 C 0 km/h
18 11-04-2020 01:25:00 10 C 6.86 g/m*3 10 C 0 km/h
19 11-04-2020 01:30:00 9.9 C 6.91 g/m*3 9.9 C 0 km/h
20 11-04-2020 01:35:00 9.8 C 6.87 g/m*3 9.8 C 0 km/h
21 11-04-2020 01:40:00 9.7 C 6.73 g/m*3 9.7 C 1.6 km/h
22 11-04-2020 01:45:00 9.6 C 6.69 g/m*3 9.6 C 0 km/h
23 11-04-2020 01:50:00 9.6 C 6.78 g/m*3 9.6 C 0 km/h
24 11-04-2020 01:55:00 9.4 C 6.69 g/m*3 9.4 C 0 km/h
25 11-04-2020 02:00:00 9.3 C 6.65 g/m*3 9.3 C 0 km/h
Sensor: Nr:Datum:Temp:Abs-Feuchte:Windchill:Wind:
Aussen-T/F 26 11-04-2020 02:05:00 9.2 C 6.61 g/m*3 9.2 C 1.6 km/h
27 11-04-2020 02:10:00 9.1 C 6.57 g/m*3 9.1 C 1.6 km/h
28 11-04-2020 02:15:00 9.1 C 6.65 g/m*3 9.1 C 3.2 km/h
29 11-04-2020 02:20:00 9 C 6.52 g/m*3 9 C 4.8 km/h
30 11-04-2020 02:25:00 8.9 C 6.48 g/m*3 8.9 C 1.6 km/h
31 11-04-2020 02:30:00 8.9 C 6.48 g/m*3 8.9 C 4.8 km/h
32 11-04-2020 02:35:00 8.9 C 6.48 g/m*3 8.9 C 3.2 km/h
33 11-04-2020 02:40:00 8.9 C 6.48 g/m*3 8.9 C 0 km/h
34 11-04-2020 02:45:00 8.9 C 6.48 g/m*3 8.9 C 0 km/h
35 11-04-2020 02:50:00 8.8 C 6.44 g/m*3 8.8 C 0 km/h
36 11-04-2020 02:55:00 8.7 C 6.4 g/m*3 8.7 C 0 km/h
37 11-04-2020 03:00:00 8.7 C 6.4 g/m*3 8.7 C 4.8 km/h
38 11-04-2020 03:05:00 8.6 C 6.27 g/m*3 8.6 C 3.2 km/h
39 11-04-2020 03:10:00 8.6 C 6.27 g/m*3 8.6 C 4.8 km/h
40 11-04-2020 03:15:00 8.6 C 6.1 g/m*3 8.6 C 4.8 km/h
41 11-04-2020 03:20:00 8.6 C 6.02 g/m*3 8.6 C 4.8 km/h
42 11-04-2020 03:25:00 8.6 C 6.02 g/m*3 8.6 C 4.8 km/h
43 11-04-2020 03:30:00 8.6 C 6.02 g/m*3 8.6 C 3.2 km/h
44 11-04-2020 03:35:00 8.5 C 5.98 g/m*3 8.5 C 3.2 km/h
45 11-04-2020 03:40:00 8.4 C 6.11 g/m*3 8.4 C 1.6 km/h
46 11-04-2020 03:45:00 8.3 C 5.98 g/m*3 8.3 C 3.2 km/h
47 11-04-2020 03:50:00 8.3 C 5.98 g/m*3 8.3 C 3.2 km/h
48 11-04-2020 03:55:00 8.2 C 5.86 g/m*3 8.2 C 4.8 km/h
49 11-04-2020 04:00:00 8.2 C 5.95 g/m*3 8.2 C 1.6 km/h
50 11-04-2020 04:05:00 8.1 C 5.91 g/m*3 8.1 C 3.2 km/h
Sensor: Nr:Datum:Temp:Abs-Feuchte:Windchill:Wind:
Aussen-T/F 51 11-04-2020 04:10:00 8.1 C 5.91 g/m*3 8.1 C 3.2 km/h
52 11-04-2020 04:15:00 8 C 5.79 g/m*3 8 C 4.8 km/h
53 11-04-2020 04:20:00 7.9 C 5.67 g/m*3 7.9 C 4.8 km/h
54 11-04-2020 04:25:00 7.9 C 5.75 g/m*3 7.9 C 4.8 km/h
55 11-04-2020 04:30:00 7.8 C 5.63 g/m*3 7.8 C 4.8 km/h
56 11-04-2020 04:35:00 7.8 C 5.71 g/m*3 7.8 C 4.8 km/h
57 11-04-2020 04:40:00 7.7 C 5.68 g/m*3 7.7 C 4.8 km/h
58 11-04-2020 04:45:00 7.7 C 5.68 g/m*3 7.7 C 4.8 km/h
59 11-04-2020 04:50:00 7.6 C 5.56 g/m*3 7.6 C 4.8 km/h
60 11-04-2020 04:55:00 7.6 C 5.48 g/m*3 7.6 C 4.8 km/h
61 11-04-2020 05:00:00 7.5 C 5.44 g/m*3 7.5 C 4.8 km/h
62 11-04-2020 05:05:00 7.5 C 5.52 g/m*3 7.5 C 4.8 km/h
63 11-04-2020 05:10:00 7.4 C 5.49 g/m*3 7.4 C 3.2 km/h
64 11-04-2020 05:15:00 7.3 C 5.37 g/m*3 7.3 C 4.8 km/h
65 11-04-2020 05:20:00 7.3 C 5.53 g/m*3 7.3 C 3.2 km/h
66 11-04-2020 05:25:00 7.2 C 5.42 g/m*3 7.2 C 3.2 km/h
67 11-04-2020 05:30:00 7.1 C 5.46 g/m*3 7.1 C 3.2 km/h
68 11-04-2020 05:35:00 6.9 C 5.39 g/m*3 6.9 C 3.2 km/h
69 11-04-2020 05:40:00 6.8 C 5.51 g/m*3 6.8 C 0 km/h
70 11-04-2020 05:45:00 6.7 C 5.55 g/m*3 6.7 C 0 km/h
71 11-04-2020 05:50:00 6.6 C 5.44 g/m*3 6.6 C 0 km/h
72 11-04-2020 05:55:00 6.5 C 5.47 g/m*3 6.5 C 0 km/h
73 11-04-2020 06:00:00 6.4 C 5.44 g/m*3 6.4 C 0 km/h
74 11-04-2020 06:05:00 6.3 C 5.48 g/m*3 6.3 C 0 km/h
75 11-04-2020 06:10:00 6.2 C 5.52 g/m*3 6.2 C 0 km/h
Sensor: Nr:Datum:Temp:Abs-Feuchte:Windchill:Wind:
Aussen-T/F 76 11-04-2020 06:15:00 6 C 5.52 g/m*3 6 C 0 km/h
77 11-04-2020 06:20:00 5.8 C 5.44 g/m*3 5.8 C 0 km/h
78 11-04-2020 06:25:00 5.7 C 5.41 g/m*3 5.7 C 0 km/h
79 11-04-2020 06:30:00 5.7 C 5.41 g/m*3 5.7 C 0 km/h
80 11-04-2020 06:35:00 5.7 C 5.41 g/m*3 5.7 C 0 km/h
81 11-04-2020 06:40:00 5.6 C 5.37 g/m*3 5.6 C 0 km/h
82 11-04-2020 06:45:00 5.5 C 5.41 g/m*3 5.5 C 0 km/h
83 11-04-2020 06:50:00 5.4 C 5.37 g/m*3 5.4 C 0 km/h
84 11-04-2020 06:55:00 5.4 C 5.37 g/m*3 5.4 C 0 km/h
85 11-04-2020 07:00:00 5.3 C 5.34 g/m*3 5.3 C 0 km/h
86 11-04-2020 07:05:00 5.2 C 5.37 g/m*3 5.2 C 0 km/h
87 11-04-2020 07:10:00 5.2 C 5.37 g/m*3 5.2 C 0 km/h
88 11-04-2020 07:15:00 5.2 C 5.37 g/m*3 5.2 C 0 km/h
89 11-04-2020 07:20:00 5.2 C 5.44 g/m*3 5.2 C 0 km/h
90 11-04-2020 07:25:00 5.2 C 5.44 g/m*3 5.2 C 0 km/h
91 11-04-2020 07:30:00 5.1 C 5.4 g/m*3 5.1 C 0 km/h
92 11-04-2020 07:35:00 5.2 C 5.44 g/m*3 5.2 C 0 km/h
93 11-04-2020 07:40:00 5.2 C 5.44 g/m*3 5.2 C 0 km/h
94 11-04-2020 07:45:00 5.2 C 5.37 g/m*3 5.2 C 0 km/h
95 11-04-2020 07:50:00 5.3 C 5.41 g/m*3 5.3 C 0 km/h
96 11-04-2020 07:55:00 5.4 C 5.44 g/m*3 5.4 C 0 km/h
97 11-04-2020 08:00:00 5.4 C 5.44 g/m*3 5.4 C 0 km/h
98 11-04-2020 08:05:00 5.5 C 5.48 g/m*3 5.5 C 0 km/h
99 11-04-2020 08:10:00 5.6 C 5.51 g/m*3 5.6 C 0 km/h
100 11-04-2020 08:15:00 5.6 C 5.51 g/m*3 5.6 C 0 km/h
Sensor: Nr:Datum:Temp:Abs-Feuchte:Windchill:Wind:
Aussen-T/F 101 11-04-2020 08:20:00 5.7 C 5.55 g/m*3 5.7 C 0 km/h
102 11-04-2020 08:25:00 5.7 C 5.55 g/m*3 5.7 C 0 km/h
103 11-04-2020 08:30:00 5.8 C 5.59 g/m*3 5.8 C 1.6 km/h
104 11-04-2020 08:35:00 5.8 C 5.44 g/m*3 5.8 C 3.2 km/h
105 11-04-2020 08:40:00 5.9 C 5.48 g/m*3 5.9 C 1.6 km/h
106 11-04-2020 08:45:00 6.1 C 5.63 g/m*3 6.1 C 0 km/h
107 11-04-2020 08:50:00 6.2 C 5.59 g/m*3 6.2 C 0 km/h
108 11-04-2020 08:55:00 6.3 C 5.7 g/m*3 6.3 C 3.2 km/h
109 11-04-2020 09:00:00 6.4 C 5.59 g/m*3 6.4 C 3.2 km/h
110 11-04-2020 09:05:00 6.6 C 5.59 g/m*3 6.6 C 1.6 km/h
111 11-04-2020 09:10:00 6.7 C 5.62 g/m*3 6.7 C 0 km/h
112 11-04-2020 09:15:00 6.9 C 5.7 g/m*3 6.9 C 0 km/h
113 11-04-2020 09:20:00 7 C 5.73 g/m*3 7 C 0 km/h
114 11-04-2020 09:25:00 7.2 C 5.81 g/m*3 7.2 C 0 km/h
115 11-04-2020 09:30:00 7.3 C 5.85 g/m*3 7.3 C 0 km/h
116 11-04-2020 09:35:00 7.5 C 5.92 g/m*3 7.5 C 0 km/h
117 11-04-2020 09:40:00 7.7 C 6 g/m*3 7.7 C 0 km/h
118 11-04-2020 09:45:00 7.9 C 6 g/m*3 7.9 C 0 km/h
119 11-04-2020 09:50:00 8.2 C 6.03 g/m*3 8.2 C 0 km/h
120 11-04-2020 09:55:00 8.4 C 6.02 g/m*3 8.4 C 3.2 km/h
121 11-04-2020 10:00:00 8.6 C 6.1 g/m*3 8.6 C 1.6 km/h
122 11-04-2020 10:05:00 8.8 C 6.01 g/m*3 8.8 C 1.6 km/h
123 11-04-2020 10:10:00 9.1 C 6.12 g/m*3 9.1 C 1.6 km/h
124 11-04-2020 10:15:00 9.3 C 6.29 g/m*3 9.3 C 1.6 km/h
125 11-04-2020 10:20:00 9.5 C 6.19 g/m*3 9.5 C 4.8 km/h
Sensor: Nr:Datum:Temp:Abs-Feuchte:Windchill:Wind:
Aussen-T/F 126 11-04-2020 10:25:00 9.8 C 6.22 g/m*3 9.8 C 1.6 km/h
127 11-04-2020 10:30:00 10.1 C 6.24 g/m*3 10.1 C 1.6 km/h
128 11-04-2020 10:35:00 10.4 C 5.98 g/m*3 10.4 C 0 km/h
129 11-04-2020 10:40:00 10.7 C 6.09 g/m*3 10.7 C 3.2 km/h
130 11-04-2020 10:45:00 11.2 C 5.57 g/m*3 11.2 C 1.6 km/h
131 11-04-2020 10:50:00 11.6 C 6.13 g/m*3 11.6 C 0 km/h
132 11-04-2020 10:55:00 11.9 C 6.25 g/m*3 11.9 C 0 km/h
133 11-04-2020 11:00:00 12.2 C 6.04 g/m*3 12.2 C 1.6 km/h
134 11-04-2020 11:05:00 12.4 C 6.34 g/m*3 12.4 C 0 km/h
135 11-04-2020 11:10:00 12.7 C 6.12 g/m*3 12.7 C 0 km/h
136 11-04-2020 11:15:00 13.1 C 5.93 g/m*3 13.1 C 0 km/h
137 11-04-2020 11:20:00 13.5 C 5.97 g/m*3 13.5 C 1.6 km/h
138 11-04-2020 11:25:00 14 C 6.15 g/m*3 14 C 1.6 km/h
139 11-04-2020 11:30:00 14.4 C 6.06 g/m*3 14.4 C 0 km/h
140 11-04-2020 11:35:00 14.8 C 5.95 g/m*3 14.8 C 1.6 km/h
141 11-04-2020 11:40:00 15.2 C 5.97 g/m*3 15.2 C 0 km/h
142 11-04-2020 11:45:00 15.6 C 6.38 g/m*3 15.6 C 0 km/h
143 11-04-2020 11:50:00 15.8 C 6.06 g/m*3 15.8 C 0 km/h
144 11-04-2020 11:55:00 16.2 C 6.07 g/m*3 16.2 C 4.8 km/h
145 11-04-2020 12:00:00 16.6 C 6.07 g/m*3 16.6 C 3.2 km/h
146 11-04-2020 12:05:00 16.9 C 6.18 g/m*3 16.9 C 4.8 km/h
147 11-04-2020 12:10:00 17.2 C 6.15 g/m*3 17.2 C 1.6 km/h
148 11-04-2020 12:15:00 17.5 C 6.11 g/m*3 17.5 C 1.6 km/h
149 11-04-2020 12:20:00 17.8 C 6.07 g/m*3 17.8 C 3.2 km/h
150 11-04-2020 12:25:00 18.1 C 5.87 g/m*3 18.1 C 8.1 km/h
Sensor: Nr:Datum:Temp:Abs-Feuchte:Windchill:Wind:
Aussen-T/F 151 11-04-2020 12:30:00 18.3 C 5.94 g/m*3 18.3 C 9.7 km/h
152 11-04-2020 12:35:00 18.6 C 6.37 g/m*3 18.6 C 9.7 km/h
153 11-04-2020 12:40:00 18.7 C 6.24 g/m*3 18.7 C 8.1 km/h
154 11-04-2020 12:45:00 18.8 C 5.96 g/m*3 18.8 C 8.1 km/h
155 11-04-2020 12:50:00 18.8 C 5.96 g/m*3 18.8 C 9.7 km/h
156 11-04-2020 12:55:00 18.9 C 5.99 g/m*3 18.9 C 12.9 km/h
157 11-04-2020 13:00:00 19.1 C 5.9 g/m*3 19.1 C 14.5 km/h
158 11-04-2020 13:05:00 19.2 C 5.94 g/m*3 19.2 C 9.7 km/h
159 11-04-2020 13:10:00 19.4 C 6.01 g/m*3 19.4 C 9.7 km/h
160 11-04-2020 13:15:00 19.5 C 6.04 g/m*3 19.5 C 8.1 km/h
161 11-04-2020 13:20:00 19.6 C 5.91 g/m*3 19.6 C 8.1 km/h
162 11-04-2020 13:25:00 19.6 C 6.08 g/m*3 19.6 C 12.9 km/h
163 11-04-2020 13:30:00 19.8 C 6.32 g/m*3 19.8 C 9.7 km/h
164 11-04-2020 13:35:00 19.9 C 6.19 g/m*3 19.9 C 6.4 km/h
165 11-04-2020 13:40:00 20.1 C 6.26 g/m*3 20.1 C 14.5 km/h
166 11-04-2020 13:45:00 20.2 C 6.29 g/m*3 20.2 C 12.9 km/h
167 11-04-2020 13:50:00 20.3 C 6.33 g/m*3 20.3 C 11.3 km/h
168 11-04-2020 13:55:00 20.4 C 6.37 g/m*3 20.4 C 12.9 km/h
169 11-04-2020 14:00:00 20.6 C 6.62 g/m*3 20.6 C 9.7 km/h
170 11-04-2020 14:05:00 20.6 C 6.62 g/m*3 20.6 C 8.1 km/h
171 11-04-2020 14:10:00 20.7 C 6.48 g/m*3 20.7 C 11.3 km/h
172 11-04-2020 14:15:00 20.9 C 6.56 g/m*3 20.9 C 11.3 km/h
173 11-04-2020 14:20:00 20.9 C 6.74 g/m*3 20.9 C 6.4 km/h
174 11-04-2020 14:25:00 21.2 C 6.86 g/m*3 21.2 C 8.1 km/h
175 11-04-2020 14:30:00 21.4 C 6.75 g/m*3 21.4 C 9.7 km/h
Sensor: Nr:Datum:Temp:Abs-Feuchte:Windchill:Wind:
Aussen-T/F 176 11-04-2020 14:35:00 21.4 C 6.56 g/m*3 21.4 C 8.1 km/h
177 11-04-2020 14:40:00 21.5 C 6.6 g/m*3 21.5 C 9.7 km/h
178 11-04-2020 14:45:00 21.7 C 6.49 g/m*3 21.7 C 9.7 km/h
179 11-04-2020 14:50:00 21.8 C 6.91 g/m*3 21.8 C 9.7 km/h
180 11-04-2020 14:55:00 22.1 C 6.83 g/m*3 22.1 C 8.1 km/h
181 11-04-2020 15:00:00 22.1 C 6.64 g/m*3 22.1 C 8.1 km/h
182 11-04-2020 15:05:00 22.1 C 7.03 g/m*3 22.1 C 11.3 km/h
183 11-04-2020 15:10:00 22.1 C 6.83 g/m*3 22.1 C 6.4 km/h
184 11-04-2020 15:15:00 22.2 C 6.68 g/m*3 22.2 C 11.3 km/h
185 11-04-2020 15:20:00 22.2 C 6.87 g/m*3 22.2 C 11.3 km/h
186 11-04-2020 15:25:00 22.1 C 6.83 g/m*3 22.1 C 12.9 km/h
187 11-04-2020 15:30:00 22.1 C 6.83 g/m*3 22.1 C 6.4 km/h
188 11-04-2020 15:35:00 22.1 C 6.83 g/m*3 22.1 C 9.7 km/h
189 11-04-2020 15:40:00 22.1 C 6.83 g/m*3 22.1 C 9.7 km/h
190 11-04-2020 15:45:00 22.2 C 7.07 g/m*3 22.2 C 3.2 km/h
191 11-04-2020 15:50:00 22.2 C 6.87 g/m*3 22.2 C 4.8 km/h
192 11-04-2020 15:55:00 22.2 C 6.87 g/m*3 22.2 C 4.8 km/h
193 11-04-2020 16:00:00 22.2 C 7.07 g/m*3 22.2 C 4.8 km/h
194 11-04-2020 16:05:00 22.2 C 7.26 g/m*3 22.2 C 4.8 km/h
195 11-04-2020 16:10:00 22.4 C 7.15 g/m*3 22.4 C 6.4 km/h
196 11-04-2020 16:15:00 22.7 C 7.07 g/m*3 22.7 C 6.4 km/h
197 11-04-2020 16:20:00 22.8 C 7.11 g/m*3 22.8 C 3.2 km/h
198 11-04-2020 16:25:00 23 C 6.99 g/m*3 23 C 1.6 km/h
199 11-04-2020 16:30:00 23.3 C 7.53 g/m*3 23.3 C 3.2 km/h
200 11-04-2020 16:35:00 23.7 C 7.06 g/m*3 23.7 C 6.4 km/h
Sensor: Nr:Datum:Temp:Abs-Feuchte:Windchill:Wind:
Aussen-T/F 201 11-04-2020 16:40:00 24.1 C 7.44 g/m*3 24.1 C 3.2 km/h
202 11-04-2020 16:45:00 24.4 C 7.79 g/m*3 24.4 C 3.2 km/h
203 11-04-2020 16:50:00 24.8 C 7.28 g/m*3 24.8 C 8.1 km/h
204 11-04-2020 16:55:00 24.9 C 7.55 g/m*3 24.9 C 4.8 km/h
205 11-04-2020 17:00:00 24.8 C 7.06 g/m*3 24.8 C 6.4 km/h
206 11-04-2020 17:05:00 24.7 C 7.24 g/m*3 24.7 C 8.1 km/h
207 11-04-2020 17:10:00 24.6 C 7.2 g/m*3 24.6 C 6.4 km/h
208 11-04-2020 17:15:00 24.6 C 7.2 g/m*3 24.6 C 8.1 km/h
209 11-04-2020 17:20:00 24.4 C 7.34 g/m*3 24.4 C 8.1 km/h
210 11-04-2020 17:25:00 24.6 C 7.43 g/m*3 24.6 C 4.8 km/h
211 11-04-2020 17:30:00 24.6 C 7.2 g/m*3 24.6 C 11.3 km/h
212 11-04-2020 17:35:00 24.2 C 7.26 g/m*3 24.2 C 9.7 km/h
213 11-04-2020 17:40:00 24.1 C 7.22 g/m*3 24.1 C 16.1 km/h
214 11-04-2020 17:45:00 23.9 C 7.36 g/m*3 23.9 C 9.7 km/h
215 11-04-2020 17:50:00 24.1 C 7.22 g/m*3 24.1 C 8.1 km/h
216 11-04-2020 17:55:00 24.1 C 7 g/m*3 24.1 C 6.4 km/h
217 11-04-2020 18:00:00 24.2 C 7.26 g/m*3 24.2 C 8.1 km/h
218 11-04-2020 18:05:00 24.1 C 7.22 g/m*3 24.1 C 8.1 km/h
219 11-04-2020 18:10:00 23.9 C 7.14 g/m*3 23.9 C 8.1 km/h
220 11-04-2020 18:15:00 23.8 C 7.1 g/m*3 23.8 C 9.7 km/h
221 11-04-2020 18:20:00 23.8 C 7.1 g/m*3 23.8 C 8.1 km/h
222 11-04-2020 18:25:00 23.9 C 7.14 g/m*3 23.9 C 9.7 km/h
223 11-04-2020 18:30:00 24 C 7.18 g/m*3 24 C 3.2 km/h
224 11-04-2020 18:35:00 24.3 C 7.3 g/m*3 24.3 C 4.8 km/h
225 11-04-2020 18:40:00 24.2 C 7.48 g/m*3 24.2 C 6.4 km/h
Sensor: Nr:Datum:Temp:Abs-Feuchte:Windchill:Wind:
Aussen-T/F 226 11-04-2020 18:45:00 24.2 C 7.04 g/m*3 24.2 C 4.8 km/h
227 11-04-2020 18:50:00 24.1 C 7 g/m*3 24.1 C 8.1 km/h
228 11-04-2020 18:55:00 23.8 C 7.1 g/m*3 23.8 C 8.1 km/h
229 11-04-2020 19:00:00 23.8 C 7.1 g/m*3 23.8 C 4.8 km/h
230 11-04-2020 19:05:00 23.9 C 7.14 g/m*3 23.9 C 4.8 km/h
231 11-04-2020 19:10:00 23.8 C 7.31 g/m*3 23.8 C 4.8 km/h
232 11-04-2020 19:15:00 23.6 C 7.66 g/m*3 23.6 C 6.4 km/h
233 11-04-2020 19:20:00 23.4 C 7.78 g/m*3 23.4 C 1.6 km/h
234 11-04-2020 19:25:00 23.2 C 6.86 g/m*3 23.2 C 4.8 km/h
235 11-04-2020 19:30:00 22.9 C 7.15 g/m*3 22.9 C 4.8 km/h
236 11-04-2020 19:35:00 22.7 C 7.07 g/m*3 22.7 C 4.8 km/h
237 11-04-2020 19:40:00 22.4 C 7.55 g/m*3 22.4 C 1.6 km/h
238 11-04-2020 19:45:00 22.1 C 8 g/m*3 22.1 C 1.6 km/h
239 11-04-2020 19:50:00 21.5 C 7.92 g/m*3 21.5 C 3.2 km/h
240 11-04-2020 19:55:00 20.7 C 8.1 g/m*3 20.7 C 3.2 km/h
241 11-04-2020 20:00:00 19.9 C 7.9 g/m*3 19.9 C 3.2 km/h
242 11-04-2020 20:05:00 19.2 C 7.75 g/m*3 19.2 C 4.8 km/h
243 11-04-2020 20:10:00 18.6 C 7.8 g/m*3 18.6 C 6.4 km/h
244 11-04-2020 20:15:00 18 C 7.68 g/m*3 18 C 3.2 km/h
245 11-04-2020 20:20:00 17.6 C 7.65 g/m*3 17.6 C 4.8 km/h
246 11-04-2020 20:25:00 17.1 C 7.71 g/m*3 17.1 C 4.8 km/h
247 11-04-2020 20:30:00 16.8 C 7.58 g/m*3 16.8 C 4.8 km/h
248 11-04-2020 20:35:00 16.5 C 7.44 g/m*3 16.5 C 4.8 km/h
249 11-04-2020 20:40:00 16.3 C 7.49 g/m*3 16.3 C 6.4 km/h
250 11-04-2020 20:45:00 16.1 C 7.4 g/m*3 16.1 C 6.4 km/h
Sensor: Nr:Datum:Temp:Abs-Feuchte:Windchill:Wind:
Aussen-T/F 251 11-04-2020 20:50:00 15.9 C 7.45 g/m*3 15.9 C 4.8 km/h
252 11-04-2020 20:55:00 15.8 C 7.4 g/m*3 15.8 C 6.4 km/h
253 11-04-2020 21:00:00 15.7 C 7.09 g/m*3 15.7 C 4.8 km/h
254 11-04-2020 21:05:00 15.6 C 7.45 g/m*3 15.6 C 6.4 km/h
255 11-04-2020 21:10:00 15.5 C 7.4 g/m*3 15.5 C 6.4 km/h
256 11-04-2020 21:15:00 15.4 C 7.36 g/m*3 15.4 C 4.8 km/h
257 11-04-2020 21:20:00 15.3 C 7.31 g/m*3 15.3 C 6.4 km/h
258 11-04-2020 21:25:00 15.3 C 7.31 g/m*3 15.3 C 6.4 km/h
259 11-04-2020 21:30:00 15.2 C 7.4 g/m*3 15.2 C 6.4 km/h
260 11-04-2020 21:35:00 15.1 C 7.48 g/m*3 15.1 C 6.4 km/h
261 11-04-2020 21:40:00 14.9 C 7.26 g/m*3 14.9 C 4.8 km/h
262 11-04-2020 21:45:00 14.8 C 7.22 g/m*3 14.8 C 4.8 km/h
263 11-04-2020 21:50:00 14.8 C 7.35 g/m*3 14.8 C 4.8 km/h
264 11-04-2020 21:55:00 14.6 C 7.51 g/m*3 14.6 C 4.8 km/h
265 11-04-2020 22:00:00 14.4 C 7.29 g/m*3 14.4 C 4.8 km/h
266 11-04-2020 22:05:00 14.3 C 7.37 g/m*3 14.3 C 4.8 km/h
267 11-04-2020 22:10:00 14.2 C 7.33 g/m*3 14.2 C 4.8 km/h
268 11-04-2020 22:15:00 14.1 C 7.28 g/m*3 14.1 C 4.8 km/h
269 11-04-2020 22:20:00 14.1 C 7.28 g/m*3 14.1 C 4.8 km/h
270 11-04-2020 22:25:00 14.1 C 7.4 g/m*3 14.1 C 4.8 km/h
271 11-04-2020 22:30:00 14.1 C 7.52 g/m*3 14.1 C 3.2 km/h
272 11-04-2020 22:35:00 14.1 C 7.65 g/m*3 14.1 C 1.6 km/h
273 11-04-2020 22:40:00 14.1 C 7.65 g/m*3 14.1 C 3.2 km/h
274 11-04-2020 22:45:00 14.2 C 7.69 g/m*3 14.2 C 1.6 km/h
275 11-04-2020 22:50:00 14.2 C 7.82 g/m*3 14.2 C 0 km/h
Sensor: Nr:Datum:Temp:Abs-Feuchte:Windchill:Wind:
Aussen-T/F 276 11-04-2020 22:55:00 14.2 C 7.94 g/m*3 14.2 C 0 km/h
277 11-04-2020 23:00:00 14.2 C 7.82 g/m*3 14.2 C 0 km/h
278 11-04-2020 23:05:00 14 C 7.72 g/m*3 14 C 0 km/h
279 11-04-2020 23:10:00 13.8 C 7.51 g/m*3 13.8 C 0 km/h
280 11-04-2020 23:15:00 13.6 C 7.53 g/m*3 13.6 C 0 km/h
281 11-04-2020 23:20:00 13.4 C 7.44 g/m*3 13.4 C 1.6 km/h
282 11-04-2020 23:25:00 13.3 C 7.51 g/m*3 13.3 C 3.2 km/h
283 11-04-2020 23:30:00 13.1 C 7.42 g/m*3 13.1 C 0 km/h
284 11-04-2020 23:35:00 12.8 C 7.39 g/m*3 12.8 C 0 km/h
285 11-04-2020 23:40:00 12.7 C 7.46 g/m*3 12.7 C 0 km/h
286 11-04-2020 23:45:00 12.5 C 7.37 g/m*3 12.5 C 0 km/h
287 11-04-2020 23:50:00 12.3 C 7.49 g/m*3 12.3 C 0 km/h
288 11-04-2020 23:55:00 12.2 C 7.45 g/m*3 12.2 C 0 km/h
289 12-04-2020 00:00:00 12.1 C 7.4 g/m*3 12.1 C 0 km/h
290 12-04-2020 00:05:00 12.2 C 7.55 g/m*3 12.2 C 0 km/h
291 12-04-2020 00:10:00 12.1 C 7.4 g/m*3 12.1 C 0 km/h
292 12-04-2020 00:15:00 12 C 7.35 g/m*3 12 C 0 km/h
293 12-04-2020 00:20:00 11.9 C 7.41 g/m*3 11.9 C 0 km/h
294 12-04-2020 00:25:00 11.8 C 7.47 g/m*3 11.8 C 0 km/h
295 12-04-2020 00:30:00 11.7 C 7.43 g/m*3 11.7 C 0 km/h
296 12-04-2020 00:35:00 11.6 C 7.48 g/m*3 11.6 C 0 km/h
297 12-04-2020 00:40:00 11.6 C 7.38 g/m*3 11.6 C 0 km/h
298 12-04-2020 00:45:00 11.6 C 7.38 g/m*3 11.6 C 0 km/h
299 12-04-2020 00:50:00 11.7 C 7.32 g/m*3 11.7 C 0 km/h
300 12-04-2020 00:55:00 11.7 C 7.32 g/m*3 11.7 C 0 km/h
Sensor: Nr:Datum:Temp:Abs-Feuchte:Windchill:Wind:
Aussen-T/F 301 12-04-2020 01:00:00 11.6 C 7.28 g/m*3 11.6 C 0 km/h
302 12-04-2020 01:05:00 11.5 C 7.23 g/m*3 11.5 C 0 km/h
303 12-04-2020 01:10:00 11.4 C 7.29 g/m*3 11.4 C 0 km/h
304 12-04-2020 01:15:00 11.3 C 7.24 g/m*3 11.3 C 0 km/h
305 12-04-2020 01:20:00 11.1 C 7.05 g/m*3 11.1 C 0 km/h
306 12-04-2020 01:25:00 11 C 7.11 g/m*3 11 C 0 km/h
307 12-04-2020 01:30:00 10.9 C 7.06 g/m*3 10.9 C 0 km/h
308 12-04-2020 01:35:00 10.8 C 7.12 g/m*3 10.8 C 0 km/h
309 12-04-2020 01:40:00 10.7 C 6.97 g/m*3 10.7 C 0 km/h
310 12-04-2020 01:45:00 10.6 C 7.03 g/m*3 10.6 C 0 km/h
311 12-04-2020 01:50:00 10.6 C 6.93 g/m*3 10.6 C 0 km/h
312 12-04-2020 01:55:00 10.7 C 7.07 g/m*3 10.7 C 0 km/h
313 12-04-2020 02:00:00 10.8 C 7.12 g/m*3 10.8 C 0 km/h
314 12-04-2020 02:05:00 10.8 C 7.22 g/m*3 10.8 C 0 km/h
315 12-04-2020 02:10:00 10.9 C 7.36 g/m*3 10.9 C 0 km/h
316 12-04-2020 02:15:00 10.9 C 7.46 g/m*3 10.9 C 0 km/h
317 12-04-2020 02:20:00 10.9 C 7.46 g/m*3 10.9 C 0 km/h
318 12-04-2020 02:25:00 10.8 C 7.31 g/m*3 10.8 C 0 km/h
319 12-04-2020 02:30:00 10.7 C 7.17 g/m*3 10.7 C 0 km/h
320 12-04-2020 02:35:00 10.7 C 7.17 g/m*3 10.7 C 0 km/h
321 12-04-2020 02:40:00 10.7 C 7.17 g/m*3 10.7 C 0 km/h
322 12-04-2020 02:45:00 10.7 C 7.17 g/m*3 10.7 C 0 km/h
323 12-04-2020 02:50:00 10.6 C 7.22 g/m*3 10.6 C 0 km/h
324 12-04-2020 02:55:00 10.5 C 7.27 g/m*3 10.5 C 0 km/h
325 12-04-2020 03:00:00 10.4 C 7.13 g/m*3 10.4 C 0 km/h
Sensor: Nr:Datum:Temp:Abs-Feuchte:Windchill:Wind:
Aussen-T/F 326 12-04-2020 03:05:00 10.4 C 7.23 g/m*3 10.4 C 0 km/h
327 12-04-2020 03:10:00 10.4 C 7.32 g/m*3 10.4 C 0 km/h
328 12-04-2020 03:15:00 10.4 C 7.42 g/m*3 10.4 C 0 km/h
329 12-04-2020 03:20:00 10.4 C 7.42 g/m*3 10.4 C 0 km/h
330 12-04-2020 03:25:00 10.4 C 7.32 g/m*3 10.4 C 0 km/h
331 12-04-2020 03:30:00 10.4 C 7.32 g/m*3 10.4 C 0 km/h
332 12-04-2020 03:35:00 10.4 C 7.42 g/m*3 10.4 C 0 km/h
333 12-04-2020 03:40:00 10.4 C 7.42 g/m*3 10.4 C 0 km/h
334 12-04-2020 03:45:00 10.3 C 7.37 g/m*3 10.3 C 0 km/h
335 12-04-2020 03:50:00 10.3 C 7.37 g/m*3 10.3 C 0 km/h
336 12-04-2020 03:55:00 10.3 C 7.37 g/m*3 10.3 C 0 km/h
337 12-04-2020 04:00:00 10.3 C 7.37 g/m*3 10.3 C 0 km/h
338 12-04-2020 04:05:00 10.3 C 7.47 g/m*3 10.3 C 0 km/h
339 12-04-2020 04:10:00 10.2 C 7.42 g/m*3 10.2 C 0 km/h
340 12-04-2020 04:15:00 10.1 C 7.28 g/m*3 10.1 C 0 km/h
341 12-04-2020 04:20:00 9.9 C 7.19 g/m*3 9.9 C 0 km/h
342 12-04-2020 04:25:00 9.7 C 7.19 g/m*3 9.7 C 0 km/h
343 12-04-2020 04:30:00 9.6 C 7.15 g/m*3 9.6 C 0 km/h
344 12-04-2020 04:35:00 9.4 C 7.15 g/m*3 9.4 C 0 km/h
345 12-04-2020 04:40:00 9.3 C 7.1 g/m*3 9.3 C 3.2 km/h
346 12-04-2020 04:45:00 9.3 C 7.19 g/m*3 9.3 C 4.8 km/h
347 12-04-2020 04:50:00 9.2 C 7.14 g/m*3 9.2 C 0 km/h
348 12-04-2020 04:55:00 9.1 C 7.1 g/m*3 9.1 C 0 km/h
349 12-04-2020 05:00:00 8.9 C 7.1 g/m*3 8.9 C 0 km/h
350 12-04-2020 05:05:00 8.8 C 7.05 g/m*3 8.8 C 0 km/h
Sensor: Nr:Datum:Temp:Abs-Feuchte:Windchill:Wind:
Aussen-T/F 351 12-04-2020 05:10:00 8.8 C 7.14 g/m*3 8.8 C 0 km/h
352 12-04-2020 05:15:00 8.8 C 7.14 g/m*3 8.8 C 0 km/h
353 12-04-2020 05:20:00 8.8 C 7.14 g/m*3 8.8 C 0 km/h
354 12-04-2020 05:25:00 8.8 C 7.14 g/m*3 8.8 C 0 km/h
355 12-04-2020 05:30:00 8.8 C 7.14 g/m*3 8.8 C 0 km/h
356 12-04-2020 05:35:00 8.7 C 7.09 g/m*3 8.7 C 0 km/h
357 12-04-2020 05:40:00 8.6 C 7.05 g/m*3 8.6 C 0 km/h
358 12-04-2020 05:45:00 8.4 C 7.04 g/m*3 8.4 C 0 km/h
359 12-04-2020 05:50:00 8.4 C 7.04 g/m*3 8.4 C 0 km/h
360 12-04-2020 05:55:00 8.3 C 7 g/m*3 8.3 C 0 km/h
361 12-04-2020 06:00:00 8.2 C 6.95 g/m*3 8.2 C 0 km/h
362 12-04-2020 06:05:00 8.2 C 7.03 g/m*3 8.2 C 0 km/h
363 12-04-2020 06:10:00 8.1 C 6.99 g/m*3 8.1 C 0 km/h
364 12-04-2020 06:15:00 8.1 C 6.99 g/m*3 8.1 C 1.6 km/h
365 12-04-2020 06:20:00 7.9 C 6.9 g/m*3 7.9 C 0 km/h
366 12-04-2020 06:25:00 7.9 C 6.98 g/m*3 7.9 C 3.2 km/h
367 12-04-2020 06:30:00 7.8 C 6.94 g/m*3 7.8 C 0 km/h
368 12-04-2020 06:35:00 7.8 C 7.02 g/m*3 7.8 C 1.6 km/h
369 12-04-2020 06:40:00 7.8 C 7.02 g/m*3 7.8 C 1.6 km/h
370 12-04-2020 06:45:00 7.8 C 7.02 g/m*3 7.8 C 0 km/h
371 12-04-2020 06:50:00 7.8 C 7.02 g/m*3 7.8 C 1.6 km/h
372 12-04-2020 06:55:00 7.7 C 6.97 g/m*3 7.7 C 0 km/h
373 12-04-2020 07:00:00 7.6 C 6.93 g/m*3 7.6 C 0 km/h
374 12-04-2020 07:05:00 7.5 C 6.88 g/m*3 7.5 C 0 km/h
375 12-04-2020 07:10:00 7.4 C 6.84 g/m*3 7.4 C 0 km/h
Sensor: Nr:Datum:Temp:Abs-Feuchte:Windchill:Wind:
Aussen-T/F 376 12-04-2020 07:15:00 7.3 C 6.87 g/m*3 7.3 C 0 km/h
377 12-04-2020 07:20:00 7.3 C 6.87 g/m*3 7.3 C 0 km/h
378 12-04-2020 07:25:00 7.3 C 6.87 g/m*3 7.3 C 0 km/h
379 12-04-2020 07:30:00 7.3 C 6.95 g/m*3 7.3 C 0 km/h
380 12-04-2020 07:35:00 7.3 C 6.95 g/m*3 7.3 C 0 km/h
381 12-04-2020 07:40:00 7.3 C 6.95 g/m*3 7.3 C 0 km/h
382 12-04-2020 07:45:00 7.4 C 7.08 g/m*3 7.4 C 0 km/h
383 12-04-2020 07:50:00 7.4 C 7.08 g/m*3 7.4 C 0 km/h
384 12-04-2020 07:55:00 7.5 C 7.04 g/m*3 7.5 C 0 km/h
385 12-04-2020 08:00:00 7.6 C 7.17 g/m*3 7.6 C 1.6 km/h
386 12-04-2020 08:05:00 7.7 C 7.22 g/m*3 7.7 C 0 km/h
387 12-04-2020 08:10:00 7.9 C 7.23 g/m*3 7.9 C 0 km/h
388 12-04-2020 08:15:00 7.9 C 7.23 g/m*3 7.9 C 0 km/h
389 12-04-2020 08:20:00 7.9 C 7.23 g/m*3 7.9 C 0 km/h
390 12-04-2020 08:25:00 8 C 7.36 g/m*3 8 C 0 km/h
391 12-04-2020 08:30:00 8 C 7.36 g/m*3 8 C 0 km/h
392 12-04-2020 08:35:00 8.1 C 7.41 g/m*3 8.1 C 0 km/h
393 12-04-2020 08:40:00 8.1 C 7.41 g/m*3 8.1 C 0 km/h
394 12-04-2020 08:45:00 8.2 C 7.45 g/m*3 8.2 C 0 km/h
395 12-04-2020 08:50:00 8.3 C 7.5 g/m*3 8.3 C 0 km/h
396 12-04-2020 08:55:00 8.4 C 7.55 g/m*3 8.4 C 0 km/h
397 12-04-2020 09:00:00 8.6 C 7.65 g/m*3 8.6 C 0 km/h
398 12-04-2020 09:05:00 8.7 C 7.7 g/m*3 8.7 C 0 km/h
399 12-04-2020 09:10:00 8.8 C 7.75 g/m*3 8.8 C 3.2 km/h
400 12-04-2020 09:15:00 8.9 C 7.8 g/m*3 8.9 C 1.6 km/h
Sensor: Nr:Datum:Temp:Abs-Feuchte:Windchill:Wind:
Aussen-T/F 401 12-04-2020 09:20:00 9.1 C 7.9 g/m*3 9.1 C 0 km/h
402 12-04-2020 09:25:00 9.3 C 8 g/m*3 9.3 C 0 km/h
403 12-04-2020 09:30:00 9.4 C 8.05 g/m*3 9.4 C 0 km/h
404 12-04-2020 09:35:00 9.6 C 8.15 g/m*3 9.6 C 0 km/h
405 12-04-2020 09:40:00 9.7 C 8.11 g/m*3 9.7 C 0 km/h
406 12-04-2020 09:45:00 9.9 C 8.22 g/m*3 9.9 C 0 km/h
407 12-04-2020 09:50:00 10.2 C 8.37 g/m*3 10.2 C 0 km/h
408 12-04-2020 09:55:00 10.3 C 8.43 g/m*3 10.3 C 1.6 km/h
409 12-04-2020 10:00:00 10.7 C 8.55 g/m*3 10.7 C 1.6 km/h
410 12-04-2020 10:05:00 10.9 C 8.55 g/m*3 10.9 C 1.6 km/h
411 12-04-2020 10:10:00 11.2 C 8.72 g/m*3 11.2 C 0 km/h
412 12-04-2020 10:15:00 11.4 C 8.72 g/m*3 11.4 C 0 km/h
413 12-04-2020 10:20:00 11.7 C 8.89 g/m*3 11.7 C 0 km/h
414 12-04-2020 10:25:00 12 C 8.95 g/m*3 12 C 1.6 km/h
415 12-04-2020 10:30:00 12.3 C 9.01 g/m*3 12.3 C 0 km/h
416 12-04-2020 10:35:00 12.6 C 9.07 g/m*3 12.6 C 1.6 km/h
417 12-04-2020 10:40:00 13.1 C 9.01 g/m*3 13.1 C 3.2 km/h
418 12-04-2020 10:45:00 13.5 C 9.24 g/m*3 13.5 C 0 km/h
419 12-04-2020 10:50:00 13.9 C 9.23 g/m*3 13.9 C 0 km/h
420 12-04-2020 10:55:00 14.2 C 9.4 g/m*3 14.2 C 0 km/h
421 12-04-2020 11:00:00 14.4 C 9.39 g/m*3 14.4 C 0 km/h
422 12-04-2020 11:05:00 14.7 C 9.44 g/m*3 14.7 C 1.6 km/h
423 12-04-2020 11:10:00 15.2 C 9.35 g/m*3 15.2 C 1.6 km/h
424 12-04-2020 11:15:00 15.7 C 9.5 g/m*3 15.7 C 1.6 km/h
425 12-04-2020 11:20:00 16.2 C 9.52 g/m*3 16.2 C 3.2 km/h
Sensor: Nr:Datum:Temp:Abs-Feuchte:Windchill:Wind:
Aussen-T/F 426 12-04-2020 11:25:00 16.7 C 9.81 g/m*3 16.7 C 0 km/h
427 12-04-2020 11:30:00 17 C 9.84 g/m*3 17 C 0 km/h
428 12-04-2020 11:35:00 17.3 C 9.72 g/m*3 17.3 C 0 km/h
429 12-04-2020 11:40:00 17.6 C 9.3 g/m*3 17.6 C 1.6 km/h
430 12-04-2020 11:45:00 17.9 C 9.16 g/m*3 17.9 C 4.8 km/h
431 12-04-2020 11:50:00 18.3 C 8.91 g/m*3 18.3 C 6.4 km/h
432 12-04-2020 11:55:00 18.6 C 8.91 g/m*3 18.6 C 4.8 km/h
433 12-04-2020 12:00:00 18.9 C 9.07 g/m*3 18.9 C 1.6 km/h
434 12-04-2020 12:05:00 19.3 C 8.79 g/m*3 19.3 C 6.4 km/h
435 12-04-2020 12:10:00 19.7 C 9.17 g/m*3 19.7 C 6.4 km/h
436 12-04-2020 12:15:00 19.9 C 8.93 g/m*3 19.9 C 6.4 km/h
437 12-04-2020 12:20:00 20.1 C 8.87 g/m*3 20.1 C 4.8 km/h
438 12-04-2020 12:25:00 20.3 C 8.62 g/m*3 20.3 C 6.4 km/h
439 12-04-2020 12:30:00 20.4 C 8.85 g/m*3 20.4 C 6.4 km/h
440 12-04-2020 12:35:00 20.6 C 8.41 g/m*3 20.6 C 8.1 km/h
441 12-04-2020 12:40:00 20.6 C 8.05 g/m*3 20.6 C 6.4 km/h
442 12-04-2020 12:45:00 20.7 C 8.1 g/m*3 20.7 C 4.8 km/h
443 12-04-2020 12:50:00 20.8 C 7.97 g/m*3 20.8 C 6.4 km/h
444 12-04-2020 12:55:00 20.8 C 7.6 g/m*3 20.8 C 9.7 km/h
445 12-04-2020 13:00:00 20.9 C 7.65 g/m*3 20.9 C 9.7 km/h
446 12-04-2020 13:05:00 21.1 C 6.82 g/m*3 21.1 C 14.5 km/h
447 12-04-2020 13:10:00 21.3 C 6.71 g/m*3 21.3 C 8.1 km/h
448 12-04-2020 13:15:00 21.3 C 6.9 g/m*3 21.3 C 8.1 km/h
449 12-04-2020 13:20:00 21.5 C 7.17 g/m*3 21.5 C 9.7 km/h
450 12-04-2020 13:25:00 21.7 C 7.25 g/m*3 21.7 C 11.3 km/h
Sensor: Nr:Datum:Temp:Abs-Feuchte:Windchill:Wind:
Aussen-T/F 451 12-04-2020 13:30:00 21.8 C 7.1 g/m*3 21.8 C 11.3 km/h
452 12-04-2020 13:35:00 21.8 C 6.91 g/m*3 21.8 C 12.9 km/h
453 12-04-2020 13:40:00 21.9 C 6.95 g/m*3 21.9 C 14.5 km/h
454 12-04-2020 13:45:00 21.9 C 6.56 g/m*3 21.9 C 9.7 km/h
455 12-04-2020 13:50:00 21.9 C 6.37 g/m*3 21.9 C 12.9 km/h
456 12-04-2020 13:55:00 21.9 C 6.37 g/m*3 21.9 C 14.5 km/h
457 12-04-2020 14:00:00 21.9 C 6.37 g/m*3 21.9 C 14.5 km/h
458 12-04-2020 14:05:00 22 C 6.6 g/m*3 22 C 11.3 km/h
459 12-04-2020 14:10:00 22.1 C 6.44 g/m*3 22.1 C 8.1 km/h
460 12-04-2020 14:15:00 22.2 C 6.28 g/m*3 22.2 C 6.4 km/h
461 12-04-2020 14:20:00 22.3 C 6.32 g/m*3 22.3 C 16.1 km/h
462 12-04-2020 14:25:00 22.4 C 6.16 g/m*3 22.4 C 16.1 km/h
463 12-04-2020 14:30:00 22.4 C 6.55 g/m*3 22.4 C 6.4 km/h
464 12-04-2020 14:35:00 22.4 C 6.36 g/m*3 22.4 C 8.1 km/h
465 12-04-2020 14:40:00 22.6 C 6.43 g/m*3 22.6 C 11.3 km/h
466 12-04-2020 14:45:00 22.7 C 6.26 g/m*3 22.7 C 14.5 km/h
467 12-04-2020 14:50:00 22.9 C 6.34 g/m*3 22.9 C 9.7 km/h
468 12-04-2020 14:55:00 23.1 C 6.41 g/m*3 23.1 C 11.3 km/h
469 12-04-2020 15:00:00 23.1 C 6.41 g/m*3 23.1 C 4.8 km/h
470 12-04-2020 15:05:00 23.2 C 6.24 g/m*3 23.2 C 17.7 km/h
471 12-04-2020 15:10:00 23.2 C 6.24 g/m*3 23.2 C 11.3 km/h
472 12-04-2020 15:15:00 23.1 C 5.99 g/m*3 23.1 C 6.4 km/h
473 12-04-2020 15:20:00 23.2 C 5.82 g/m*3 23.2 C 16.1 km/h
474 12-04-2020 15:25:00 23.3 C 5.65 g/m*3 23.3 C 11.3 km/h
475 12-04-2020 15:30:00 23.4 C 5.68 g/m*3 23.4 C 8.1 km/h
Sensor: Nr:Datum:Temp:Abs-Feuchte:Windchill:Wind:
Aussen-T/F 476 12-04-2020 15:35:00 23.5 C 5.92 g/m*3 23.5 C 8.1 km/h
477 12-04-2020 15:40:00 23.7 C 5.99 g/m*3 23.7 C 11.3 km/h
478 12-04-2020 15:45:00 23.9 C 6.92 g/m*3 23.9 C 19.3 km/h
479 12-04-2020 15:50:00 23.6 C 6.59 g/m*3 23.6 C 11.3 km/h
480 12-04-2020 15:55:00 23.3 C 6.48 g/m*3 23.3 C 9.7 km/h
481 12-04-2020 16:00:00 23.2 C 7.28 g/m*3 23.2 C 8.1 km/h
482 12-04-2020 16:05:00 23.4 C 6.73 g/m*3 23.4 C 1.6 km/h
483 12-04-2020 16:10:00 23.8 C 6.88 g/m*3 23.8 C 3.2 km/h
484 12-04-2020 16:15:00 24.2 C 6.38 g/m*3 24.2 C 6.4 km/h
485 12-04-2020 16:20:00 24.6 C 5.85 g/m*3 24.6 C 11.3 km/h
486 12-04-2020 16:25:00 24.8 C 5.24 g/m*3 24.8 C 9.7 km/h
487 12-04-2020 16:30:00 24.6 C 6.08 g/m*3 24.6 C 11.3 km/h
488 12-04-2020 16:35:00 24.1 C 6.35 g/m*3 24.1 C 8.1 km/h
489 12-04-2020 16:40:00 23.7 C 6.2 g/m*3 23.7 C 3.2 km/h
490 12-04-2020 16:45:00 23.4 C 6.1 g/m*3 23.4 C 8.1 km/h
491 12-04-2020 16:50:00 23.2 C 6.24 g/m*3 23.2 C 6.4 km/h
492 12-04-2020 16:55:00 23.2 C 6.44 g/m*3 23.2 C 8.1 km/h
493 12-04-2020 17:00:00 23.8 C 6.45 g/m*3 23.8 C 8.1 km/h
494 12-04-2020 17:05:00 24.3 C 6.42 g/m*3 24.3 C 9.7 km/h
495 12-04-2020 17:10:00 24.4 C 6.23 g/m*3 24.4 C 9.7 km/h
496 12-04-2020 17:15:00 24.5 C 6.27 g/m*3 24.5 C 9.7 km/h
497 12-04-2020 17:20:00 24.3 C 6.42 g/m*3 24.3 C 6.4 km/h
498 12-04-2020 17:25:00 24.3 C 6.42 g/m*3 24.3 C 4.8 km/h
499 12-04-2020 17:30:00 24.2 C 5.94 g/m*3 24.2 C 4.8 km/h
500 12-04-2020 17:35:00 24.1 C 6.56 g/m*3 24.1 C 4.8 km/h
Sensor: Nr:Datum:Temp:Abs-Feuchte:Windchill:Wind:
Aussen-T/F 501 12-04-2020 17:40:00 24.3 C 6.42 g/m*3 24.3 C 6.4 km/h
502 12-04-2020 17:45:00 24.5 C 6.04 g/m*3 24.5 C 6.4 km/h
503 12-04-2020 17:50:00 24.6 C 6.08 g/m*3 24.6 C 8.1 km/h
504 12-04-2020 17:55:00 24.7 C 6.11 g/m*3 24.7 C 8.1 km/h
505 12-04-2020 18:00:00 24.6 C 6.3 g/m*3 24.6 C 4.8 km/h
506 12-04-2020 18:05:00 24.6 C 5.85 g/m*3 24.6 C 6.4 km/h
507 12-04-2020 18:10:00 24.6 C 6.08 g/m*3 24.6 C 4.8 km/h
508 12-04-2020 18:15:00 24.7 C 5.88 g/m*3 24.7 C 6.4 km/h
509 12-04-2020 18:20:00 24.7 C 6.11 g/m*3 24.7 C 3.2 km/h
510 12-04-2020 18:25:00 24.9 C 6.18 g/m*3 24.9 C 6.4 km/h
511 12-04-2020 18:30:00 24.8 C 5.92 g/m*3 24.8 C 8.1 km/h
512 12-04-2020 18:35:00 24.7 C 6.11 g/m*3 24.7 C 6.4 km/h
513 12-04-2020 18:40:00 24.3 C 5.97 g/m*3 24.3 C 9.7 km/h
514 12-04-2020 18:45:00 24.1 C 6.35 g/m*3 24.1 C 4.8 km/h
515 12-04-2020 18:50:00 24.1 C 6.13 g/m*3 24.1 C 8.1 km/h
516 12-04-2020 18:55:00 23.8 C 5.81 g/m*3 23.8 C 9.7 km/h
517 12-04-2020 19:00:00 23.7 C 5.99 g/m*3 23.7 C 6.4 km/h
518 12-04-2020 19:05:00 23.7 C 6.2 g/m*3 23.7 C 8.1 km/h
519 12-04-2020 19:10:00 23.4 C 5.89 g/m*3 23.4 C 8.1 km/h
520 12-04-2020 19:15:00 23.3 C 6.06 g/m*3 23.3 C 4.8 km/h
521 12-04-2020 19:20:00 23.1 C 5.99 g/m*3 23.1 C 4.8 km/h
522 12-04-2020 19:25:00 22.9 C 5.72 g/m*3 22.9 C 4.8 km/h
523 12-04-2020 19:30:00 22.7 C 6.06 g/m*3 22.7 C 3.2 km/h
524 12-04-2020 19:35:00 22.5 C 6.99 g/m*3 22.5 C 1.6 km/h
525 12-04-2020 19:40:00 22.2 C 7.26 g/m*3 22.2 C 3.2 km/h
Sensor: Nr:Datum:Temp:Abs-Feuchte:Windchill:Wind:
Aussen-T/F 526 12-04-2020 19:45:00 21.9 C 7.14 g/m*3 21.9 C 3.2 km/h
527 12-04-2020 19:50:00 21.4 C 7.5 g/m*3 21.4 C 3.2 km/h
528 12-04-2020 19:55:00 20.7 C 7.2 g/m*3 20.7 C 4.8 km/h
529 12-04-2020 20:00:00 20.1 C 7.13 g/m*3 20.1 C 4.8 km/h
530 12-04-2020 20:05:00 19.3 C 7.13 g/m*3 19.3 C 6.4 km/h
531 12-04-2020 20:10:00 18.8 C 6.93 g/m*3 18.8 C 6.4 km/h
532 12-04-2020 20:15:00 18.3 C 7.04 g/m*3 18.3 C 6.4 km/h
533 12-04-2020 20:20:00 17.9 C 6.87 g/m*3 17.9 C 8.1 km/h
534 12-04-2020 20:25:00 17.6 C 6.9 g/m*3 17.6 C 6.4 km/h
535 12-04-2020 20:30:00 17.3 C 6.92 g/m*3 17.3 C 6.4 km/h
536 12-04-2020 20:35:00 17.1 C 6.99 g/m*3 17.1 C 6.4 km/h
537 12-04-2020 20:40:00 16.8 C 6.72 g/m*3 16.8 C 4.8 km/h
538 12-04-2020 20:45:00 16.6 C 6.78 g/m*3 16.6 C 6.4 km/h
539 12-04-2020 20:50:00 16.4 C 6.7 g/m*3 16.4 C 6.4 km/h
540 12-04-2020 20:55:00 16.2 C 6.9 g/m*3 16.2 C 6.4 km/h
541 12-04-2020 21:00:00 16 C 6.95 g/m*3 16 C 4.8 km/h
542 12-04-2020 21:05:00 15.8 C 7.13 g/m*3 15.8 C 4.8 km/h
543 12-04-2020 21:10:00 15.4 C 7.09 g/m*3 15.4 C 3.2 km/h
544 12-04-2020 21:15:00 15.2 C 7.14 g/m*3 15.2 C 3.2 km/h
545 12-04-2020 21:20:00 14.8 C 7.22 g/m*3 14.8 C 0 km/h
546 12-04-2020 21:25:00 14.5 C 7.09 g/m*3 14.5 C 1.6 km/h
547 12-04-2020 21:30:00 14.2 C 7.33 g/m*3 14.2 C 0 km/h
548 12-04-2020 21:35:00 14.1 C 7.04 g/m*3 14.1 C 1.6 km/h
549 12-04-2020 21:40:00 13.9 C 7.19 g/m*3 13.9 C 3.2 km/h
550 12-04-2020 21:45:00 13.9 C 6.95 g/m*3 13.9 C 1.6 km/h
Sensor: Nr:Datum:Temp:Abs-Feuchte:Windchill:Wind:
Aussen-T/F 551 12-04-2020 21:50:00 13.8 C 7.15 g/m*3 13.8 C 0 km/h
552 12-04-2020 21:55:00 13.7 C 7.1 g/m*3 13.7 C 0 km/h
553 12-04-2020 22:00:00 13.6 C 7.3 g/m*3 13.6 C 0 km/h
554 12-04-2020 22:05:00 13.6 C 7.18 g/m*3 13.6 C 0 km/h
555 12-04-2020 22:10:00 13.5 C 7.25 g/m*3 13.5 C 0 km/h
556 12-04-2020 22:15:00 13.4 C 7.09 g/m*3 13.4 C 1.6 km/h
557 12-04-2020 22:20:00 13.3 C 7.05 g/m*3 13.3 C 0 km/h
558 12-04-2020 22:25:00 13.2 C 6.89 g/m*3 13.2 C 0 km/h
559 12-04-2020 22:30:00 13.2 C 6.89 g/m*3 13.2 C 0 km/h
560 12-04-2020 22:35:00 13 C 6.92 g/m*3 13 C 0 km/h
561 12-04-2020 22:40:00 12.8 C 6.94 g/m*3 12.8 C 0 km/h
562 12-04-2020 22:45:00 12.6 C 6.97 g/m*3 12.6 C 0 km/h
563 12-04-2020 22:50:00 12.4 C 6.77 g/m*3 12.4 C 0 km/h
564 12-04-2020 22:55:00 12.2 C 6.69 g/m*3 12.2 C 0 km/h
565 12-04-2020 23:00:00 12.2 C 6.8 g/m*3 12.2 C 0 km/h
566 12-04-2020 23:05:00 12.1 C 6.86 g/m*3 12.1 C 0 km/h
567 12-04-2020 23:10:00 11.9 C 6.88 g/m*3 11.9 C 0 km/h
568 12-04-2020 23:15:00 11.7 C 6.9 g/m*3 11.7 C 0 km/h
569 12-04-2020 23:20:00 11.6 C 6.86 g/m*3 11.6 C 0 km/h
570 12-04-2020 23:25:00 11.6 C 6.86 g/m*3 11.6 C 0 km/h
571 12-04-2020 23:30:00 11.4 C 6.77 g/m*3 11.4 C 0 km/h
572 12-04-2020 23:35:00 11.3 C 6.83 g/m*3 11.3 C 0 km/h
573 12-04-2020 23:40:00 11.1 C 6.85 g/m*3 11.1 C 0 km/h
574 12-04-2020 23:45:00 10.9 C 6.86 g/m*3 10.9 C 0 km/h
575 12-04-2020 23:50:00 10.8 C 6.92 g/m*3 10.8 C 3.2 km/h
Sensor: Nr:Datum:Temp:Abs-Feuchte:Windchill:Wind:
Aussen-T/F 576 12-04-2020 23:55:00 10.8 C 6.82 g/m*3 10.8 C 0 km/h
577 13-04-2020 00:00:00 10.8 C 6.92 g/m*3 10.8 C 0 km/h
578 13-04-2020 00:05:00 10.8 C 6.92 g/m*3 10.8 C 0 km/h
579 13-04-2020 00:10:00 10.8 C 7.02 g/m*3 10.8 C 0 km/h
580 13-04-2020 00:15:00 10.8 C 7.02 g/m*3 10.8 C 0 km/h
581 13-04-2020 00:20:00 10.8 C 7.12 g/m*3 10.8 C 0 km/h
582 13-04-2020 00:25:00 10.8 C 7.12 g/m*3 10.8 C 0 km/h
583 13-04-2020 00:30:00 10.7 C 7.07 g/m*3 10.7 C 0 km/h
584 13-04-2020 00:35:00 10.7 C 7.07 g/m*3 10.7 C 0 km/h
585 13-04-2020 00:40:00 10.6 C 7.03 g/m*3 10.6 C 0 km/h
586 13-04-2020 00:45:00 10.4 C 7.04 g/m*3 10.4 C 0 km/h
587 13-04-2020 00:50:00 10.3 C 6.99 g/m*3 10.3 C 0 km/h
588 13-04-2020 00:55:00 10.2 C 7.04 g/m*3 10.2 C 0 km/h
589 13-04-2020 01:00:00 10.1 C 7 g/m*3 10.1 C 0 km/h
590 13-04-2020 01:05:00 9.9 C 6.91 g/m*3 9.9 C 0 km/h
591 13-04-2020 01:10:00 9.8 C 6.87 g/m*3 9.8 C 0 km/h
592 13-04-2020 01:15:00 9.8 C 6.96 g/m*3 9.8 C 0 km/h
593 13-04-2020 01:20:00 9.8 C 6.96 g/m*3 9.8 C 0 km/h
594 13-04-2020 01:25:00 9.7 C 7.01 g/m*3 9.7 C 0 km/h
595 13-04-2020 01:30:00 9.7 C 7.01 g/m*3 9.7 C 0 km/h
596 13-04-2020 01:35:00 9.7 C 7.01 g/m*3 9.7 C 0 km/h
597 13-04-2020 01:40:00 9.6 C 6.96 g/m*3 9.6 C 0 km/h
598 13-04-2020 01:45:00 9.6 C 6.96 g/m*3 9.6 C 0 km/h
599 13-04-2020 01:50:00 9.6 C 6.96 g/m*3 9.6 C 0 km/h
600 13-04-2020 01:55:00 9.6 C 6.96 g/m*3 9.6 C 4.8 km/h
Sensor: Nr:Datum:Temp:Abs-Feuchte:Windchill:Wind:
Aussen-T/F 601 13-04-2020 02:00:00 9.6 C 6.96 g/m*3 9.6 C 3.2 km/h
602 13-04-2020 02:05:00 9.5 C 6.92 g/m*3 9.5 C 1.6 km/h
603 13-04-2020 02:10:00 9.4 C 6.87 g/m*3 9.4 C 1.6 km/h
604 13-04-2020 02:15:00 9.4 C 6.87 g/m*3 9.4 C 0 km/h
605 13-04-2020 02:20:00 9.4 C 6.87 g/m*3 9.4 C 1.6 km/h
606 13-04-2020 02:25:00 9.4 C 6.96 g/m*3 9.4 C 4.8 km/h
607 13-04-2020 02:30:00 9.4 C 6.96 g/m*3 8.68 C 6.4 km/h
608 13-04-2020 02:35:00 9.4 C 6.96 g/m*3 9.4 C 1.6 km/h
609 13-04-2020 02:40:00 9.3 C 6.92 g/m*3 9.3 C 0 km/h
610 13-04-2020 02:45:00 9.2 C 6.88 g/m*3 9.2 C 3.2 km/h
611 13-04-2020 02:50:00 9.3 C 6.92 g/m*3 9.3 C 3.2 km/h
612 13-04-2020 02:55:00 9.3 C 6.92 g/m*3 9.3 C 0 km/h
613 13-04-2020 03:00:00 9.2 C 6.88 g/m*3 9.2 C 1.6 km/h
614 13-04-2020 03:05:00 9.1 C 6.92 g/m*3 9.1 C 3.2 km/h
615 13-04-2020 03:10:00 8.9 C 6.92 g/m*3 8.9 C 0 km/h
616 13-04-2020 03:15:00 8.8 C 6.88 g/m*3 8.8 C 0 km/h
617 13-04-2020 03:20:00 8.7 C 6.83 g/m*3 8.7 C 0 km/h
618 13-04-2020 03:25:00 8.6 C 6.87 g/m*3 8.6 C 4.8 km/h
619 13-04-2020 03:30:00 8.6 C 6.87 g/m*3 8.6 C 4.8 km/h
620 13-04-2020 03:35:00 8.6 C 6.87 g/m*3 8.6 C 1.6 km/h
621 13-04-2020 03:40:00 8.5 C 6.92 g/m*3 8.5 C 0 km/h
622 13-04-2020 03:45:00 8.4 C 6.87 g/m*3 8.4 C 1.6 km/h
623 13-04-2020 03:50:00 8.4 C 6.79 g/m*3 8.4 C 0 km/h
624 13-04-2020 03:55:00 8.3 C 6.83 g/m*3 8.3 C 1.6 km/h
625 13-04-2020 04:00:00 8.3 C 6.83 g/m*3 8.3 C 1.6 km/h
Sensor: Nr:Datum:Temp:Abs-Feuchte:Windchill:Wind:
Aussen-T/F 626 13-04-2020 04:05:00 8.2 C 6.78 g/m*3 8.2 C 0 km/h
627 13-04-2020 04:10:00 8.1 C 6.74 g/m*3 8.1 C 0 km/h
628 13-04-2020 04:15:00 7.9 C 6.74 g/m*3 7.9 C 0 km/h
629 13-04-2020 04:20:00 7.8 C 6.77 g/m*3 7.8 C 0 km/h
630 13-04-2020 04:25:00 7.6 C 6.69 g/m*3 7.6 C 0 km/h
631 13-04-2020 04:30:00 7.5 C 6.72 g/m*3 7.5 C 0 km/h
632 13-04-2020 04:35:00 7.4 C 6.76 g/m*3 7.4 C 0 km/h
633 13-04-2020 04:40:00 7.3 C 6.72 g/m*3 7.3 C 0 km/h
634 13-04-2020 04:45:00 7.3 C 6.72 g/m*3 7.3 C 1.6 km/h
635 13-04-2020 04:50:00 7.3 C 6.79 g/m*3 6.25 C 6.4 km/h
636 13-04-2020 04:55:00 7.3 C 6.79 g/m*3 7.3 C 3.2 km/h
637 13-04-2020 05:00:00 7.4 C 6.84 g/m*3 7.4 C 0 km/h
638 13-04-2020 05:05:00 7.4 C 6.76 g/m*3 7.4 C 0 km/h
639 13-04-2020 05:10:00 7.4 C 6.76 g/m*3 7.4 C 1.6 km/h
640 13-04-2020 05:15:00 7.4 C 6.84 g/m*3 7.4 C 4.8 km/h
641 13-04-2020 05:20:00 7.5 C 6.96 g/m*3 7.5 C 0 km/h
642 13-04-2020 05:25:00 7.6 C 7.01 g/m*3 7.6 C 0 km/h
643 13-04-2020 05:30:00 7.6 C 7.01 g/m*3 7.6 C 0 km/h
644 13-04-2020 05:35:00 7.6 C 6.93 g/m*3 7.6 C 0 km/h
645 13-04-2020 05:40:00 7.6 C 6.93 g/m*3 7.6 C 4.8 km/h
646 13-04-2020 05:45:00 7.7 C 6.97 g/m*3 7.7 C 1.6 km/h
647 13-04-2020 05:50:00 7.7 C 6.89 g/m*3 7.7 C 3.2 km/h
648 13-04-2020 05:55:00 7.7 C 6.89 g/m*3 7.7 C 0 km/h
649 13-04-2020 06:00:00 7.8 C 6.94 g/m*3 7.8 C 0 km/h
650 13-04-2020 06:05:00 7.8 C 6.94 g/m*3 7.8 C 0 km/h
Sensor: Nr:Datum:Temp:Abs-Feuchte:Windchill:Wind:
Aussen-T/F 651 13-04-2020 06:10:00 7.7 C 6.81 g/m*3 7.7 C 0 km/h
652 13-04-2020 06:15:00 7.6 C 6.77 g/m*3 7.6 C 0 km/h
653 13-04-2020 06:20:00 7.4 C 6.76 g/m*3 7.4 C 0 km/h
654 13-04-2020 06:25:00 7.3 C 6.72 g/m*3 7.3 C 0 km/h
655 13-04-2020 06:30:00 7.2 C 6.75 g/m*3 7.2 C 0 km/h
656 13-04-2020 06:35:00 7.2 C 6.75 g/m*3 7.2 C 0 km/h
657 13-04-2020 06:40:00 7.1 C 6.71 g/m*3 7.1 C 0 km/h
658 13-04-2020 06:45:00 6.9 C 6.7 g/m*3 6.9 C 0 km/h
659 13-04-2020 06:50:00 6.9 C 6.7 g/m*3 6.9 C 0 km/h
660 13-04-2020 06:55:00 6.9 C 6.7 g/m*3 6.9 C 0 km/h
661 13-04-2020 07:00:00 6.9 C 6.77 g/m*3 6.9 C 0 km/h
662 13-04-2020 07:05:00 7 C 6.82 g/m*3 7 C 0 km/h
663 13-04-2020 07:10:00 7.1 C 6.86 g/m*3 7.1 C 0 km/h
664 13-04-2020 07:15:00 7.2 C 6.91 g/m*3 7.2 C 0 km/h
665 13-04-2020 07:20:00 7.3 C 6.95 g/m*3 7.3 C 0 km/h
666 13-04-2020 07:25:00 7.4 C 7 g/m*3 7.4 C 0 km/h
667 13-04-2020 07:30:00 7.6 C 7.09 g/m*3 7.6 C 1.6 km/h
668 13-04-2020 07:35:00 7.8 C 7.18 g/m*3 7.8 C 1.6 km/h
669 13-04-2020 07:40:00 7.9 C 7.15 g/m*3 7.9 C 1.6 km/h
670 13-04-2020 07:45:00 8.1 C 7.16 g/m*3 8.1 C 1.6 km/h
671 13-04-2020 07:50:00 8.2 C 7.2 g/m*3 8.2 C 1.6 km/h
672 13-04-2020 07:55:00 8.3 C 7.16 g/m*3 8.3 C 4.8 km/h
673 13-04-2020 08:00:00 8.4 C 7.21 g/m*3 8.4 C 0 km/h
674 13-04-2020 08:05:00 8.5 C 7.26 g/m*3 8.5 C 1.6 km/h
675 13-04-2020 08:10:00 8.6 C 7.3 g/m*3 8.6 C 1.6 km/h
Sensor: Nr:Datum:Temp:Abs-Feuchte:Windchill:Wind:
Aussen-T/F 676 13-04-2020 08:15:00 8.7 C 7.35 g/m*3 8.7 C 1.6 km/h
677 13-04-2020 08:20:00 8.8 C 7.4 g/m*3 8.8 C 3.2 km/h
678 13-04-2020 08:25:00 8.9 C 7.45 g/m*3 8.9 C 4.8 km/h
679 13-04-2020 08:30:00 9.1 C 7.54 g/m*3 9.1 C 3.2 km/h
680 13-04-2020 08:35:00 9.3 C 7.73 g/m*3 9.3 C 4.8 km/h
681 13-04-2020 08:40:00 9.7 C 8.11 g/m*3 9.02 C 6.4 km/h
682 13-04-2020 08:45:00 10.3 C 8.43 g/m*3 10.3 C 4.8 km/h
683 13-04-2020 08:50:00 10.7 C 8.55 g/m*3 8.84 C 14.5 km/h
684 13-04-2020 08:55:00 10.9 C 8.55 g/m*3 10.41 C 6.4 km/h
685 13-04-2020 09:00:00 11.2 C 8.72 g/m*3 11.2 C 8.1 km/h
686 13-04-2020 09:05:00 11.3 C 8.67 g/m*3 11.3 C 9.7 km/h
687 13-04-2020 09:10:00 11.3 C 8.67 g/m*3 11.3 C 12.9 km/h
688 13-04-2020 09:15:00 11.3 C 8.57 g/m*3 11.3 C 11.3 km/h
689 13-04-2020 09:20:00 11.4 C 8.72 g/m*3 11.4 C 9.7 km/h
690 13-04-2020 09:25:00 11.4 C 8.62 g/m*3 11.4 C 11.3 km/h
691 13-04-2020 09:30:00 11.5 C 8.68 g/m*3 11.5 C 4.8 km/h
692 13-04-2020 09:35:00 11.6 C 8.63 g/m*3 11.6 C 8.1 km/h
693 13-04-2020 09:40:00 11.7 C 8.68 g/m*3 11.7 C 9.7 km/h
694 13-04-2020 09:45:00 11.8 C 8.74 g/m*3 11.8 C 9.7 km/h
695 13-04-2020 09:50:00 11.8 C 8.63 g/m*3 11.8 C 14.5 km/h
696 13-04-2020 09:55:00 11.6 C 8.21 g/m*3 11.6 C 19.3 km/h
697 13-04-2020 10:00:00 11.5 C 8.26 g/m*3 11.5 C 11.3 km/h
698 13-04-2020 10:05:00 11.4 C 8.21 g/m*3 11.4 C 8.1 km/h
699 13-04-2020 10:10:00 11.3 C 8.16 g/m*3 11.3 C 8.1 km/h
700 13-04-2020 10:15:00 11.3 C 8.06 g/m*3 11.3 C 12.9 km/h
Sensor: Nr:Datum:Temp:Abs-Feuchte:Windchill:Wind:
Aussen-T/F 701 13-04-2020 10:20:00 11.2 C 7.91 g/m*3 11.2 C 14.5 km/h
702 13-04-2020 10:25:00 11.2 C 8.01 g/m*3 11.2 C 9.7 km/h
703 13-04-2020 10:30:00 11.2 C 8.01 g/m*3 11.2 C 9.7 km/h
704 13-04-2020 10:35:00 11.1 C 7.96 g/m*3 11.1 C 8.1 km/h
705 13-04-2020 10:40:00 11.1 C 7.96 g/m*3 11.1 C 9.7 km/h
706 13-04-2020 10:45:00 11.2 C 7.91 g/m*3 11.2 C 12.9 km/h
707 13-04-2020 10:50:00 11.2 C 7.8 g/m*3 11.2 C 12.9 km/h
708 13-04-2020 10:55:00 11.3 C 7.85 g/m*3 11.3 C 8.1 km/h
709 13-04-2020 11:00:00 11.3 C 7.75 g/m*3 11.3 C 14.5 km/h
710 13-04-2020 11:05:00 11.3 C 7.75 g/m*3 11.3 C 12.9 km/h
711 13-04-2020 11:10:00 11.3 C 7.65 g/m*3 11.3 C 11.3 km/h
712 13-04-2020 11:15:00 11.3 C 7.65 g/m*3 11.3 C 14.5 km/h
713 13-04-2020 11:20:00 11.3 C 7.65 g/m*3 11.3 C 11.3 km/h
714 13-04-2020 11:25:00 11.3 C 7.55 g/m*3 11.3 C 17.7 km/h
715 13-04-2020 11:30:00 11.3 C 7.55 g/m*3 11.3 C 16.1 km/h
716 13-04-2020 11:35:00 11.3 C 7.45 g/m*3 11.3 C 16.1 km/h
717 13-04-2020 11:40:00 11.2 C 7.3 g/m*3 11.2 C 17.7 km/h
718 13-04-2020 11:45:00 11 C 7.31 g/m*3 9.4 C 12.9 km/h
719 13-04-2020 11:50:00 10.8 C 7.12 g/m*3 8.78 C 16.1 km/h
720 13-04-2020 11:55:00 10.8 C 7.12 g/m*3 8.78 C 16.1 km/h
721 13-04-2020 12:00:00 10.7 C 7.17 g/m*3 8.84 C 14.5 km/h
722 13-04-2020 12:05:00 10.7 C 7.17 g/m*3 8.84 C 14.5 km/h
723 13-04-2020 12:10:00 10.6 C 7.42 g/m*3 8.53 C 16.1 km/h
724 13-04-2020 12:15:00 10.4 C 7.32 g/m*3 8.11 C 17.7 km/h
725 13-04-2020 12:20:00 10.2 C 7.33 g/m*3 7.54 C 20.9 km/h
Sensor: Nr:Datum:Temp:Abs-Feuchte:Windchill:Wind:
Aussen-T/F 726 13-04-2020 12:25:00 10.1 C 7.28 g/m*3 7.42 C 20.9 km/h
727 13-04-2020 12:30:00 10.2 C 7.42 g/m*3 7.86 C 17.7 km/h
728 13-04-2020 12:35:00 10.3 C 7.37 g/m*3 8.16 C 16.1 km/h
729 13-04-2020 12:40:00 10.3 C 7.28 g/m*3 7.98 C 17.7 km/h
730 13-04-2020 12:45:00 10.4 C 7.42 g/m*3 8.28 C 16.1 km/h
731 13-04-2020 12:50:00 10.3 C 7.28 g/m*3 7.82 C 19.3 km/h
732 13-04-2020 12:55:00 10.2 C 7.23 g/m*3 7.7 C 19.3 km/h
733 13-04-2020 13:00:00 10.1 C 7.28 g/m*3 7.91 C 16.1 km/h
734 13-04-2020 13:05:00 10 C 7.24 g/m*3 7.78 C 16.1 km/h
735 13-04-2020 13:10:00 9.9 C 7.28 g/m*3 7.66 C 16.1 km/h
736 13-04-2020 13:15:00 9.9 C 7.28 g/m*3 7.32 C 19.3 km/h
737 13-04-2020 13:20:00 9.9 C 7.19 g/m*3 7.48 C 17.7 km/h
738 13-04-2020 13:25:00 9.8 C 7.14 g/m*3 7.19 C 19.3 km/h
739 13-04-2020 13:30:00 9.7 C 7.1 g/m*3 6.63 C 24.1 km/h
740 13-04-2020 13:35:00 9.5 C 7.1 g/m*3 6.66 C 20.9 km/h
741 13-04-2020 13:40:00 9.3 C 7.1 g/m*3 6.26 C 22.5 km/h
742 13-04-2020 13:45:00 9.1 C 7.19 g/m*3 6.15 C 20.9 km/h
743 13-04-2020 13:50:00 8.7 C 7.18 g/m*3 6.17 C 16.1 km/h
744 13-04-2020 13:55:00 8.4 C 7.21 g/m*3 5.61 C 17.7 km/h
745 13-04-2020 14:00:00 8.2 C 7.2 g/m*3 6.87 C 8.1 km/h
746 13-04-2020 14:05:00 8.1 C 7.24 g/m*3 6.42 C 9.7 km/h
747 13-04-2020 14:10:00 8.1 C 7.16 g/m*3 7.17 C 6.4 km/h
748 13-04-2020 14:15:00 8.1 C 7.16 g/m*3 6.42 C 9.7 km/h
749 13-04-2020 14:20:00 8.2 C 7.12 g/m*3 6.54 C 9.7 km/h
750 13-04-2020 14:25:00 8.3 C 7.08 g/m*3 6.37 C 11.3 km/h
Sensor: Nr:Datum:Temp:Abs-Feuchte:Windchill:Wind:
Aussen-T/F 751 13-04-2020 14:30:00 8.4 C 6.96 g/m*3 6.49 C 11.3 km/h
752 13-04-2020 14:35:00 8.6 C 7.13 g/m*3 7.75 C 6.4 km/h
753 13-04-2020 14:40:00 8.8 C 7.05 g/m*3 7.25 C 9.7 km/h
754 13-04-2020 14:45:00 9 C 6.96 g/m*3 7.49 C 9.7 km/h
755 13-04-2020 14:50:00 9.3 C 7.1 g/m*3 7.33 C 12.9 km/h
756 13-04-2020 14:55:00 9.6 C 6.78 g/m*3 7.11 C 17.7 km/h
757 13-04-2020 15:00:00 9.9 C 6.82 g/m*3 8.06 C 12.9 km/h
758 13-04-2020 15:05:00 10.2 C 6.85 g/m*3 8.22 C 14.5 km/h
759 13-04-2020 15:10:00 10.4 C 6.65 g/m*3 8.67 C 12.9 km/h
760 13-04-2020 15:15:00 10.6 C 6.73 g/m*3 8.71 C 14.5 km/h
761 13-04-2020 15:20:00 10.7 C 6.19 g/m*3 8.65 C 16.1 km/h
762 13-04-2020 15:25:00 10.6 C 5.95 g/m*3 8.05 C 20.9 km/h
763 13-04-2020 15:30:00 10.6 C 5.86 g/m*3 8.53 C 16.1 km/h
764 13-04-2020 15:35:00 10.6 C 5.86 g/m*3 8.53 C 16.1 km/h
765 13-04-2020 15:40:00 10.7 C 5.8 g/m*3 9.04 C 12.9 km/h
766 13-04-2020 15:45:00 10.8 C 5.44 g/m*3 8.78 C 16.1 km/h
767 13-04-2020 15:50:00 10.8 C 5.54 g/m*3 8.61 C 17.7 km/h
768 13-04-2020 15:55:00 10.9 C 5.47 g/m*3 8.58 C 19.3 km/h
769 13-04-2020 16:00:00 10.9 C 5.37 g/m*3 8.58 C 19.3 km/h
770 13-04-2020 16:05:00 10.7 C 5.21 g/m*3 7.91 C 24.1 km/h
771 13-04-2020 16:10:00 10.8 C 5.14 g/m*3 8.61 C 17.7 km/h
772 13-04-2020 16:15:00 10.9 C 5.27 g/m*3 9.28 C 12.9 km/h
773 13-04-2020 16:20:00 10.9 C 5.17 g/m*3 8.58 C 19.3 km/h
774 13-04-2020 16:25:00 11.3 C 5.3 g/m*3 11.3 C 14.5 km/h
775 13-04-2020 16:30:00 11.6 C 5.2 g/m*3 11.6 C 19.3 km/h
Sensor: Nr:Datum:Temp:Abs-Feuchte:Windchill:Wind:
Aussen-T/F 776 13-04-2020 16:35:00 11.9 C 4.98 g/m*3 11.9 C 19.3 km/h
777 13-04-2020 16:40:00 11.9 C 4.87 g/m*3 11.9 C 20.9 km/h
778 13-04-2020 16:45:00 11.9 C 4.87 g/m*3 11.9 C 16.1 km/h
779 13-04-2020 16:50:00 12 C 4.9 g/m*3 12 C 14.5 km/h
780 13-04-2020 16:55:00 12.3 C 4.99 g/m*3 12.3 C 17.7 km/h
781 13-04-2020 17:00:00 12.3 C 4.78 g/m*3 12.3 C 16.1 km/h
782 13-04-2020 17:05:00 12.3 C 4.89 g/m*3 12.3 C 14.5 km/h
783 13-04-2020 17:10:00 12.4 C 4.92 g/m*3 12.4 C 14.5 km/h
784 13-04-2020 17:15:00 12.6 C 4.98 g/m*3 12.6 C 19.3 km/h
785 13-04-2020 17:20:00 12.5 C 4.73 g/m*3 12.5 C 17.7 km/h
786 13-04-2020 17:25:00 12.6 C 4.87 g/m*3 12.6 C 14.5 km/h
787 13-04-2020 17:30:00 12.6 C 4.76 g/m*3 12.6 C 19.3 km/h
788 13-04-2020 17:35:00 12.6 C 4.87 g/m*3 12.6 C 20.9 km/h
789 13-04-2020 17:40:00 12.7 C 4.79 g/m*3 12.7 C 12.9 km/h
790 13-04-2020 17:45:00 12.7 C 4.56 g/m*3 12.7 C 19.3 km/h
791 13-04-2020 17:50:00 12.5 C 4.62 g/m*3 12.5 C 16.1 km/h
792 13-04-2020 17:55:00 12.8 C 4.82 g/m*3 12.8 C 14.5 km/h
793 13-04-2020 18:00:00 13.1 C 4.68 g/m*3 13.1 C 16.1 km/h
794 13-04-2020 18:05:00 13.1 C 4.68 g/m*3 13.1 C 14.5 km/h
795 13-04-2020 18:10:00 12.9 C 4.62 g/m*3 12.9 C 12.9 km/h
796 13-04-2020 18:15:00 12.7 C 4.45 g/m*3 12.7 C 14.5 km/h
797 13-04-2020 18:20:00 12.7 C 4.45 g/m*3 12.7 C 17.7 km/h
798 13-04-2020 18:25:00 12.6 C 4.65 g/m*3 12.6 C 20.9 km/h
799 13-04-2020 18:30:00 12.6 C 4.65 g/m*3 12.6 C 20.9 km/h
800 13-04-2020 18:35:00 12.4 C 4.26 g/m*3 12.4 C 19.3 km/h
Sensor: Nr:Datum:Temp:Abs-Feuchte:Windchill:Wind:
Aussen-T/F 801 13-04-2020 18:40:00 12.2 C 4.21 g/m*3 12.2 C 19.3 km/h
802 13-04-2020 18:45:00 12 C 4.16 g/m*3 12 C 16.1 km/h
803 13-04-2020 18:50:00 12 C 4.16 g/m*3 12 C 12.9 km/h
804 13-04-2020 18:55:00 11.9 C 4.13 g/m*3 11.9 C 14.5 km/h
805 13-04-2020 19:00:00 11.8 C 4.21 g/m*3 11.8 C 14.5 km/h
806 13-04-2020 19:05:00 11.7 C 4.18 g/m*3 11.7 C 17.7 km/h
807 13-04-2020 19:10:00 11.4 C 4.21 g/m*3 11.4 C 14.5 km/h
808 13-04-2020 19:15:00 11.3 C 4.28 g/m*3 11.3 C 14.5 km/h
809 13-04-2020 19:20:00 11.2 C 4.26 g/m*3 11.2 C 11.3 km/h
810 13-04-2020 19:25:00 10.9 C 4.28 g/m*3 8.9 C 16.1 km/h
811 13-04-2020 19:30:00 10.8 C 4.35 g/m*3 9.38 C 11.3 km/h
812 13-04-2020 19:35:00 10.7 C 4.22 g/m*3 8.48 C 17.7 km/h
813 13-04-2020 19:40:00 10.6 C 4.2 g/m*3 8.05 C 20.9 km/h
814 13-04-2020 19:45:00 10.4 C 4.14 g/m*3 8.67 C 12.9 km/h
815 13-04-2020 19:50:00 10.2 C 4.09 g/m*3 8.03 C 16.1 km/h
816 13-04-2020 19:55:00 10.1 C 4.07 g/m*3 7.91 C 16.1 km/h
817 13-04-2020 20:00:00 9.9 C 4.11 g/m*3 8.56 C 9.7 km/h
818 13-04-2020 20:05:00 9.7 C 4.15 g/m*3 8.06 C 11.3 km/h
819 13-04-2020 20:10:00 9.6 C 4.12 g/m*3 7.94 C 11.3 km/h
820 13-04-2020 20:15:00 9.3 C 4.13 g/m*3 7.85 C 9.7 km/h
821 13-04-2020 20:20:00 9.2 C 4.11 g/m*3 7.73 C 9.7 km/h
822 13-04-2020 20:25:00 9.1 C 4.08 g/m*3 6.67 C 16.1 km/h
823 13-04-2020 20:30:00 9 C 3.97 g/m*3 6.75 C 14.5 km/h
824 13-04-2020 20:35:00 9 C 3.97 g/m*3 6.97 C 12.9 km/h
825 13-04-2020 20:40:00 8.9 C 4.03 g/m*3 7.37 C 9.7 km/h
Sensor: Nr:Datum:Temp:Abs-Feuchte:Windchill:Wind:
Aussen-T/F 826 13-04-2020 20:45:00 8.8 C 4 g/m*3 7.25 C 9.7 km/h
827 13-04-2020 20:50:00 8.7 C 4.06 g/m*3 7.46 C 8.1 km/h
828 13-04-2020 20:55:00 8.5 C 4.01 g/m*3 7.22 C 8.1 km/h
829 13-04-2020 21:00:00 8.3 C 3.96 g/m*3 6.99 C 8.1 km/h
830 13-04-2020 21:05:00 8.3 C 3.96 g/m*3 6.99 C 8.1 km/h
831 13-04-2020 21:10:00 8.2 C 3.94 g/m*3 6.87 C 8.1 km/h
832 13-04-2020 21:15:00 8.2 C 4.02 g/m*3 6.25 C 11.3 km/h
833 13-04-2020 21:20:00 8.1 C 3.99 g/m*3 6.13 C 11.3 km/h
834 13-04-2020 21:25:00 8 C 3.97 g/m*3 7.06 C 6.4 km/h
835 13-04-2020 21:30:00 7.9 C 3.94 g/m*3 5.89 C 11.3 km/h
836 13-04-2020 21:35:00 7.8 C 3.92 g/m*3 7.8 C 4.8 km/h
837 13-04-2020 21:40:00 7.7 C 3.97 g/m*3 6.28 C 8.1 km/h
838 13-04-2020 21:45:00 7.6 C 4.03 g/m*3 5.82 C 9.7 km/h
839 13-04-2020 21:50:00 7.5 C 4.08 g/m*3 6.05 C 8.1 km/h
840 13-04-2020 21:55:00 7.4 C 3.98 g/m*3 7.4 C 3.2 km/h
841 13-04-2020 22:00:00 7.3 C 4.11 g/m*3 7.3 C 3.2 km/h
842 13-04-2020 22:05:00 7.1 C 4.21 g/m*3 7.1 C 3.2 km/h
843 13-04-2020 22:10:00 6.9 C 4 g/m*3 6.9 C 3.2 km/h
844 13-04-2020 22:15:00 6.7 C 4.18 g/m*3 6.7 C 1.6 km/h
845 13-04-2020 22:20:00 6.5 C 4.2 g/m*3 6.5 C 1.6 km/h
846 13-04-2020 22:25:00 6.3 C 4.07 g/m*3 6.3 C 4.8 km/h
847 13-04-2020 22:30:00 6.1 C 4.16 g/m*3 6.1 C 0 km/h
848 13-04-2020 22:35:00 5.8 C 4.23 g/m*3 5.8 C 0 km/h
849 13-04-2020 22:40:00 5.4 C 4.26 g/m*3 5.4 C 4.8 km/h
850 13-04-2020 22:45:00 5.1 C 4.31 g/m*3 5.1 C 0 km/h
Sensor: Nr:Datum:Temp:Abs-Feuchte:Windchill:Wind:
Aussen-T/F 851 13-04-2020 22:50:00 4.8 C 4.29 g/m*3 4.8 C 3.2 km/h
852 13-04-2020 22:55:00 4.7 C 4.33 g/m*3 4.7 C 3.2 km/h
853 13-04-2020 23:00:00 4.5 C 4.21 g/m*3 4.5 C 4.8 km/h
854 13-04-2020 23:05:00 4.4 C 4.24 g/m*3 4.4 C 0 km/h
855 13-04-2020 23:10:00 4.4 C 4.31 g/m*3 4.4 C 3.2 km/h
856 13-04-2020 23:15:00 4.3 C 4.28 g/m*3 4.3 C 3.2 km/h
857 13-04-2020 23:20:00 4.3 C 4.35 g/m*3 4.3 C 3.2 km/h
858 13-04-2020 23:25:00 4.2 C 4.38 g/m*3 4.2 C 4.8 km/h
859 13-04-2020 23:30:00 4.1 C 4.29 g/m*3 4.1 C 3.2 km/h
860 13-04-2020 23:35:00 4 C 4.26 g/m*3 4 C 4.8 km/h
861 13-04-2020 23:40:00 4.2 C 4.19 g/m*3 2.17 C 8.1 km/h
862 13-04-2020 23:45:00 4.3 C 4.15 g/m*3 4.3 C 3.2 km/h
863 13-04-2020 23:50:00 4.4 C 4.18 g/m*3 4.4 C 1.6 km/h
864 13-04-2020 23:55:00 4.4 C 4.18 g/m*3 4.4 C 1.6 km/h
865 14-04-2020 00:00:00 4.3 C 4.15 g/m*3 4.3 C 1.6 km/h
866 14-04-2020 00:05:00 4.2 C 4.12 g/m*3 4.2 C 3.2 km/h
867 14-04-2020 00:10:00 4.1 C 4.16 g/m*3 2.55 C 6.4 km/h
868 14-04-2020 00:15:00 4.2 C 4.19 g/m*3 2.17 C 8.1 km/h
869 14-04-2020 00:20:00 4.1 C 4.16 g/m*3 4.1 C 4.8 km/h
870 14-04-2020 00:25:00 4.1 C 4.16 g/m*3 4.1 C 0 km/h
871 14-04-2020 00:30:00 4.1 C 4.1 g/m*3 4.1 C 3.2 km/h
872 14-04-2020 00:35:00 4.1 C 4.16 g/m*3 4.1 C 0 km/h
873 14-04-2020 00:40:00 4 C 4.2 g/m*3 4 C 1.6 km/h
874 14-04-2020 00:45:00 3.9 C 4.17 g/m*3 3.9 C 1.6 km/h
875 14-04-2020 00:50:00 3.8 C 4.14 g/m*3 3.8 C 3.2 km/h
Sensor: Nr:Datum:Temp:Abs-Feuchte:Windchill:Wind:
Aussen-T/F 876 14-04-2020 00:55:00 3.8 C 4.08 g/m*3 3.8 C 1.6 km/h
877 14-04-2020 01:00:00 3.8 C 4.08 g/m*3 3.8 C 3.2 km/h
878 14-04-2020 01:05:00 3.9 C 4.04 g/m*3 3.9 C 4.8 km/h
879 14-04-2020 01:10:00 4 C 4.13 g/m*3 4 C 3.2 km/h
880 14-04-2020 01:15:00 4.1 C 4.16 g/m*3 2.55 C 6.4 km/h
881 14-04-2020 01:20:00 4.1 C 4.16 g/m*3 4.1 C 1.6 km/h
882 14-04-2020 01:25:00 3.9 C 4.23 g/m*3 3.9 C 0 km/h
883 14-04-2020 01:30:00 3.6 C 4.15 g/m*3 3.6 C 3.2 km/h
884 14-04-2020 01:35:00 3.4 C 4.15 g/m*3 3.4 C 3.2 km/h
885 14-04-2020 01:40:00 3.3 C 4.19 g/m*3 3.3 C 0 km/h
886 14-04-2020 01:45:00 3.1 C 4.19 g/m*3 3.1 C 0 km/h
887 14-04-2020 01:50:00 2.8 C 4.16 g/m*3 2.8 C 0 km/h
888 14-04-2020 01:55:00 2.6 C 4.17 g/m*3 2.6 C 1.6 km/h
889 14-04-2020 02:00:00 2.4 C 4.17 g/m*3 2.4 C 0 km/h
890 14-04-2020 02:05:00 2.4 C 4.17 g/m*3 2.4 C 0 km/h
891 14-04-2020 02:10:00 2.3 C 4.14 g/m*3 2.3 C 0 km/h
892 14-04-2020 02:15:00 2.3 C 4.2 g/m*3 2.3 C 0 km/h
893 14-04-2020 02:20:00 2.2 C 4.17 g/m*3 2.2 C 1.6 km/h
894 14-04-2020 02:25:00 2.1 C 4.14 g/m*3 2.1 C 0 km/h
895 14-04-2020 02:30:00 2 C 4.17 g/m*3 2 C 1.6 km/h
896 14-04-2020 02:35:00 1.9 C 4.14 g/m*3 1.9 C 1.6 km/h
897 14-04-2020 02:40:00 1.9 C 4.14 g/m*3 1.9 C 1.6 km/h
898 14-04-2020 02:45:00 1.8 C 4.11 g/m*3 1.8 C 0 km/h
899 14-04-2020 02:50:00 1.7 C 4.14 g/m*3 1.7 C 1.6 km/h
900 14-04-2020 02:55:00 1.6 C 4.16 g/m*3 1.6 C 0 km/h
Sensor: Nr:Datum:Temp:Abs-Feuchte:Windchill:Wind:
Aussen-T/F 901 14-04-2020 03:00:00 1.5 C 4.14 g/m*3 1.5 C 0 km/h
902 14-04-2020 03:05:00 1.4 C 4.11 g/m*3 1.4 C 4.8 km/h
903 14-04-2020 03:10:00 1.3 C 4.08 g/m*3 1.3 C 4.8 km/h
904 14-04-2020 03:15:00 1.4 C 4.11 g/m*3 1.4 C 3.2 km/h
905 14-04-2020 03:20:00 1.6 C 4.16 g/m*3 1.6 C 0 km/h
906 14-04-2020 03:25:00 1.6 C 4.16 g/m*3 1.6 C 1.6 km/h
907 14-04-2020 03:30:00 1.5 C 4.19 g/m*3 1.5 C 1.6 km/h
908 14-04-2020 03:35:00 1.5 C 4.14 g/m*3 1.5 C 4.8 km/h
909 14-04-2020 03:40:00 1.5 C 4.14 g/m*3 1.5 C 3.2 km/h
910 14-04-2020 03:45:00 1.5 C 4.19 g/m*3 1.5 C 1.6 km/h
911 14-04-2020 03:50:00 1.5 C 4.14 g/m*3 1.5 C 1.6 km/h
912 14-04-2020 03:55:00 1.5 C 4.14 g/m*3 1.5 C 1.6 km/h
913 14-04-2020 04:00:00 1.4 C 4.11 g/m*3 1.4 C 3.2 km/h
914 14-04-2020 04:05:00 1.4 C 4.16 g/m*3 1.4 C 0 km/h
915 14-04-2020 04:10:00 1.4 C 4.16 g/m*3 1.4 C 0 km/h
916 14-04-2020 04:15:00 1.3 C 4.13 g/m*3 1.3 C 0 km/h
917 14-04-2020 04:20:00 1.3 C 4.13 g/m*3 1.3 C 0 km/h
918 14-04-2020 04:25:00 1.2 C 4.16 g/m*3 1.2 C 1.6 km/h
919 14-04-2020 04:30:00 1.2 C 4.1 g/m*3 1.2 C 0 km/h
920 14-04-2020 04:35:00 1.1 C 4.13 g/m*3 1.1 C 4.8 km/h
921 14-04-2020 04:40:00 1 C 4.05 g/m*3 1 C 4.8 km/h
922 14-04-2020 04:45:00 0.9 C 4.02 g/m*3 0.9 C 4.8 km/h
923 14-04-2020 04:50:00 0.9 C 4.07 g/m*3 0.9 C 4.8 km/h
924 14-04-2020 04:55:00 0.9 C 4.07 g/m*3 0.9 C 4.8 km/h
925 14-04-2020 05:00:00 0.9 C 4.07 g/m*3 0.9 C 3.2 km/h
Sensor: Nr:Datum:Temp:Abs-Feuchte:Windchill:Wind:
Aussen-T/F 926 14-04-2020 05:05:00 0.8 C 4.1 g/m*3 0.8 C 0 km/h
927 14-04-2020 05:10:00 0.7 C 4.07 g/m*3 0.7 C 1.6 km/h
928 14-04-2020 05:15:00 0.6 C 4.04 g/m*3 0.6 C 3.2 km/h
929 14-04-2020 05:20:00 0.6 C 4.09 g/m*3 0.6 C 4.8 km/h
930 14-04-2020 05:25:00 0.6 C 4.09 g/m*3 0.6 C 3.2 km/h
931 14-04-2020 05:30:00 0.7 C 4.17 g/m*3 0.7 C 1.6 km/h
932 14-04-2020 05:35:00 0.8 C 4.2 g/m*3 0.8 C 0 km/h
933 14-04-2020 05:40:00 0.8 C 4.2 g/m*3 0.8 C 0 km/h
934 14-04-2020 05:45:00 0.9 C 4.23 g/m*3 0.9 C 0 km/h
935 14-04-2020 05:50:00 1 C 4.26 g/m*3 1 C 0 km/h
936 14-04-2020 05:55:00 0.9 C 4.23 g/m*3 0.9 C 3.2 km/h
937 14-04-2020 06:00:00 0.8 C 4.2 g/m*3 0.8 C 0 km/h
938 14-04-2020 06:05:00 0.7 C 4.17 g/m*3 0.7 C 0 km/h
939 14-04-2020 06:10:00 0.6 C 4.14 g/m*3 0.6 C 0 km/h
940 14-04-2020 06:15:00 0.4 C 4.08 g/m*3 0.4 C 0 km/h
941 14-04-2020 06:20:00 0.3 C 4.11 g/m*3 0.3 C 0 km/h
942 14-04-2020 06:25:00 0.2 C 4.13 g/m*3 0.2 C 0 km/h
943 14-04-2020 06:30:00 0.2 C 4.13 g/m*3 0.2 C 1.6 km/h
944 14-04-2020 06:35:00 0.2 C 4.18 g/m*3 0.2 C 0 km/h
945 14-04-2020 06:40:00 0.2 C 4.18 g/m*3 0.2 C 0 km/h
946 14-04-2020 06:45:00 0.3 C 4.25 g/m*3 0.3 C 4.8 km/h
947 14-04-2020 06:50:00 0.5 C 4.31 g/m*3 0.5 C 0 km/h
948 14-04-2020 06:55:00 0.6 C 4.34 g/m*3 0.6 C 0 km/h
949 14-04-2020 07:00:00 0.7 C 4.37 g/m*3 0.7 C 0 km/h
950 14-04-2020 07:05:00 0.8 C 4.4 g/m*3 0.8 C 0 km/h
Sensor: Nr:Datum:Temp:Abs-Feuchte:Windchill:Wind:
Aussen-T/F 951 14-04-2020 07:10:00 0.9 C 4.38 g/m*3 0.9 C 0 km/h
952 14-04-2020 07:15:00 0.9 C 4.38 g/m*3 0.9 C 0 km/h
953 14-04-2020 07:20:00 1.1 C 4.44 g/m*3 1.1 C 0 km/h
954 14-04-2020 07:25:00 1.2 C 4.47 g/m*3 1.2 C 0 km/h
955 14-04-2020 07:30:00 1.4 C 4.53 g/m*3 1.4 C 0 km/h
956 14-04-2020 07:35:00 1.5 C 4.51 g/m*3 1.5 C 0 km/h
957 14-04-2020 07:40:00 1.6 C 4.54 g/m*3 1.6 C 0 km/h
958 14-04-2020 07:45:00 1.8 C 4.6 g/m*3 1.8 C 0 km/h
959 14-04-2020 07:50:00 1.9 C 4.58 g/m*3 1.9 C 0 km/h
960 14-04-2020 07:55:00 2.1 C 4.64 g/m*3 2.1 C 0 km/h
961 14-04-2020 08:00:00 2.2 C 4.68 g/m*3 2.2 C 0 km/h
962 14-04-2020 08:05:00 2.3 C 4.71 g/m*3 2.3 C 0 km/h
963 14-04-2020 08:10:00 2.4 C 4.74 g/m*3 2.4 C 0 km/h
964 14-04-2020 08:15:00 2.5 C 4.71 g/m*3 2.5 C 0 km/h
965 14-04-2020 08:20:00 2.6 C 4.75 g/m*3 2.6 C 0 km/h
966 14-04-2020 08:25:00 2.6 C 4.75 g/m*3 2.6 C 0 km/h
967 14-04-2020 08:30:00 2.6 C 4.8 g/m*3 2.6 C 0 km/h
968 14-04-2020 08:35:00 2.6 C 4.8 g/m*3 2.6 C 4.8 km/h
969 14-04-2020 08:40:00 2.6 C 4.8 g/m*3 2.6 C 3.2 km/h
970 14-04-2020 08:45:00 2.6 C 4.8 g/m*3 2.6 C 0 km/h
971 14-04-2020 08:50:00 2.7 C 4.84 g/m*3 2.7 C 0 km/h
972 14-04-2020 08:55:00 2.8 C 4.87 g/m*3 2.8 C 1.6 km/h
973 14-04-2020 09:00:00 2.9 C 4.84 g/m*3 2.9 C 1.6 km/h
974 14-04-2020 09:05:00 3.1 C 4.91 g/m*3 3.1 C 1.6 km/h
975 14-04-2020 09:10:00 3.3 C 4.97 g/m*3 3.3 C 0 km/h
Sensor: Nr:Datum:Temp:Abs-Feuchte:Windchill:Wind:
Aussen-T/F 976 14-04-2020 09:15:00 3.6 C 4.95 g/m*3 3.6 C 1.6 km/h
977 14-04-2020 09:20:00 3.9 C 4.99 g/m*3 3.9 C 1.6 km/h
978 14-04-2020 09:25:00 4.3 C 5.12 g/m*3 4.3 C 1.6 km/h
979 14-04-2020 09:30:00 4.6 C 5.1 g/m*3 4.6 C 0 km/h
980 14-04-2020 09:35:00 4.9 C 5.06 g/m*3 4.9 C 3.2 km/h
981 14-04-2020 09:40:00 5.1 C 5.06 g/m*3 5.1 C 4.8 km/h
982 14-04-2020 09:45:00 5.2 C 5.03 g/m*3 5.2 C 3.2 km/h
983 14-04-2020 09:50:00 5.4 C 5.02 g/m*3 5.4 C 3.2 km/h
984 14-04-2020 09:55:00 5.6 C 5.09 g/m*3 5.6 C 1.6 km/h
985 14-04-2020 10:00:00 5.9 C 5.05 g/m*3 5.9 C 4.8 km/h
986 14-04-2020 10:05:00 6.1 C 5.11 g/m*3 4.86 C 6.4 km/h
987 14-04-2020 10:10:00 6.2 C 5.07 g/m*3 6.2 C 4.8 km/h
988 14-04-2020 10:15:00 6.1 C 4.97 g/m*3 6.1 C 4.8 km/h
989 14-04-2020 10:20:00 6.1 C 4.97 g/m*3 6.1 C 4.8 km/h
990 14-04-2020 10:25:00 6.1 C 4.97 g/m*3 6.1 C 3.2 km/h
991 14-04-2020 10:30:00 6.2 C 5 g/m*3 6.2 C 1.6 km/h
992 14-04-2020 10:35:00 6.4 C 5.07 g/m*3 4.75 C 8.1 km/h
993 14-04-2020 10:40:00 6.7 C 4.86 g/m*3 5.56 C 6.4 km/h
994 14-04-2020 10:45:00 6.9 C 4.93 g/m*3 5.34 C 8.1 km/h
995 14-04-2020 10:50:00 7.2 C 4.95 g/m*3 4.77 C 12.9 km/h
996 14-04-2020 10:55:00 7.4 C 4.93 g/m*3 5.02 C 12.9 km/h
997 14-04-2020 11:00:00 7.6 C 4.83 g/m*3 5.26 C 12.9 km/h
998 14-04-2020 11:05:00 7.6 C 4.83 g/m*3 5.53 C 11.3 km/h
999 14-04-2020 11:10:00 7.6 C 4.67 g/m*3 5.53 C 11.3 km/h
1000 14-04-2020 11:15:00 7.6 C 4.43 g/m*3 5.53 C 11.3 km/h
Sensor: Nr:Datum:Temp:Abs-Feuchte:Windchill:Wind:
Aussen-T/F 1001 14-04-2020 11:20:00 7.7 C 4.54 g/m*3 5.38 C 12.9 km/h
1002 14-04-2020 11:25:00 7.7 C 4.54 g/m*3 5.38 C 12.9 km/h
1003 14-04-2020 11:30:00 7.6 C 4.51 g/m*3 4.25 C 20.9 km/h
1004 14-04-2020 11:35:00 7.7 C 4.54 g/m*3 5.65 C 11.3 km/h
1005 14-04-2020 11:40:00 8 C 4.38 g/m*3 5.75 C 12.9 km/h
1006 14-04-2020 11:45:00 8.2 C 4.44 g/m*3 5.76 C 14.5 km/h
1007 14-04-2020 11:50:00 8 C 4.38 g/m*3 5.3 C 16.1 km/h
1008 14-04-2020 11:55:00 7.9 C 4.35 g/m*3 5.63 C 12.9 km/h
1009 14-04-2020 12:00:00 7.9 C 4.44 g/m*3 6.52 C 8.1 km/h
1010 14-04-2020 12:05:00 8 C 4.46 g/m*3 5.3 C 16.1 km/h
1011 14-04-2020 12:10:00 8 C 4.55 g/m*3 5.52 C 14.5 km/h
1012 14-04-2020 12:15:00 8 C 4.63 g/m*3 6.01 C 11.3 km/h
1013 14-04-2020 12:20:00 8.1 C 4.66 g/m*3 5.64 C 14.5 km/h
1014 14-04-2020 12:25:00 8.1 C 4.58 g/m*3 6.75 C 8.1 km/h
1015 14-04-2020 12:30:00 8.1 C 4.49 g/m*3 8.1 C 4.8 km/h
1016 14-04-2020 12:35:00 8.1 C 4.58 g/m*3 6.13 C 11.3 km/h
1017 14-04-2020 12:40:00 8.3 C 4.55 g/m*3 5.68 C 16.1 km/h
1018 14-04-2020 12:45:00 8.4 C 4.5 g/m*3 7.52 C 6.4 km/h
1019 14-04-2020 12:50:00 8.6 C 4.55 g/m*3 7.75 C 6.4 km/h
1020 14-04-2020 12:55:00 8.7 C 4.5 g/m*3 7.46 C 8.1 km/h
1021 14-04-2020 13:00:00 8.7 C 4.41 g/m*3 7.87 C 6.4 km/h
1022 14-04-2020 13:05:00 8.8 C 4.61 g/m*3 7.25 C 9.7 km/h
1023 14-04-2020 13:10:00 8.9 C 4.64 g/m*3 7.09 C 11.3 km/h
1024 14-04-2020 13:15:00 8.9 C 4.64 g/m*3 7.37 C 9.7 km/h
1025 14-04-2020 13:20:00 8.9 C 4.73 g/m*3 7.37 C 9.7 km/h
Sensor: Nr:Datum:Temp:Abs-Feuchte:Windchill:Wind:
Aussen-T/F 1026 14-04-2020 13:25:00 9.1 C 4.79 g/m*3 8.33 C 6.4 km/h
1027 14-04-2020 13:30:00 9.2 C 4.64 g/m*3 7.73 C 9.7 km/h
1028 14-04-2020 13:35:00 9.2 C 4.64 g/m*3 7.73 C 9.7 km/h
1029 14-04-2020 13:40:00 9.3 C 4.76 g/m*3 8.16 C 8.1 km/h
1030 14-04-2020 13:45:00 9.3 C 4.49 g/m*3 8.16 C 8.1 km/h
1031 14-04-2020 13:50:00 9.1 C 4.44 g/m*3 7.61 C 9.7 km/h
1032 14-04-2020 13:55:00 9 C 4.58 g/m*3 7.81 C 8.1 km/h
1033 14-04-2020 14:00:00 9.1 C 4.61 g/m*3 7.61 C 9.7 km/h
1034 14-04-2020 14:05:00 9.2 C 4.55 g/m*3 8.05 C 8.1 km/h
1035 14-04-2020 14:10:00 9.3 C 4.49 g/m*3 7.85 C 9.7 km/h
1036 14-04-2020 14:15:00 9.6 C 4.49 g/m*3 8.52 C 8.1 km/h
1037 14-04-2020 14:20:00 9.8 C 4.73 g/m*3 9.14 C 6.4 km/h
1038 14-04-2020 14:25:00 10.2 C 4.57 g/m*3 8.92 C 9.7 km/h
1039 14-04-2020 14:30:00 10.1 C 4.54 g/m*3 8.54 C 11.3 km/h
1040 14-04-2020 14:35:00 10.2 C 4.57 g/m*3 9.22 C 8.1 km/h
1041 14-04-2020 14:40:00 10.2 C 4.57 g/m*3 9.22 C 8.1 km/h
1042 14-04-2020 14:45:00 10.2 C 4.57 g/m*3 8.92 C 9.7 km/h
1043 14-04-2020 14:50:00 10.3 C 4.6 g/m*3 9.34 C 8.1 km/h
1044 14-04-2020 14:55:00 10.4 C 4.63 g/m*3 9.16 C 9.7 km/h
1045 14-04-2020 15:00:00 10.4 C 4.63 g/m*3 9.46 C 8.1 km/h
1046 14-04-2020 15:05:00 10.4 C 4.53 g/m*3 9.83 C 6.4 km/h
1047 14-04-2020 15:10:00 10.6 C 4.68 g/m*3 9.69 C 8.1 km/h
1048 14-04-2020 15:15:00 10.8 C 4.65 g/m*3 9.38 C 11.3 km/h
1049 14-04-2020 15:20:00 10.9 C 4.58 g/m*3 9.51 C 11.3 km/h
1050 14-04-2020 15:25:00 10.8 C 4.55 g/m*3 9.64 C 9.7 km/h
Sensor: Nr:Datum:Temp:Abs-Feuchte:Windchill:Wind:
Aussen-T/F 1051 14-04-2020 15:30:00 10.7 C 4.42 g/m*3 10.18 C 6.4 km/h
1052 14-04-2020 15:35:00 10.9 C 4.67 g/m*3 9.76 C 9.7 km/h
1053 14-04-2020 15:40:00 11.2 C 4.76 g/m*3 11.2 C 9.7 km/h
1054 14-04-2020 15:45:00 11.2 C 4.56 g/m*3 11.2 C 16.1 km/h
1055 14-04-2020 15:50:00 11.2 C 4.56 g/m*3 11.2 C 8.1 km/h
1056 14-04-2020 15:55:00 11.1 C 4.53 g/m*3 11.1 C 11.3 km/h
1057 14-04-2020 16:00:00 11.2 C 4.66 g/m*3 11.2 C 11.3 km/h
1058 14-04-2020 16:05:00 11.3 C 4.59 g/m*3 11.3 C 9.7 km/h
1059 14-04-2020 16:10:00 11.3 C 4.69 g/m*3 11.3 C 9.7 km/h
1060 14-04-2020 16:15:00 11.6 C 4.78 g/m*3 11.6 C 8.1 km/h
1061 14-04-2020 16:20:00 12 C 4.8 g/m*3 12 C 11.3 km/h
1062 14-04-2020 16:25:00 12.1 C 4.5 g/m*3 12.1 C 9.7 km/h
1063 14-04-2020 16:30:00 11.8 C 4.53 g/m*3 11.8 C 6.4 km/h
1064 14-04-2020 16:35:00 11.8 C 4.74 g/m*3 11.8 C 14.5 km/h
1065 14-04-2020 16:40:00 11.8 C 4.74 g/m*3 11.8 C 12.9 km/h
1066 14-04-2020 16:45:00 11.9 C 4.77 g/m*3 11.9 C 8.1 km/h
1067 14-04-2020 16:50:00 12.4 C 4.92 g/m*3 12.4 C 6.4 km/h
1068 14-04-2020 16:55:00 12.7 C 4.68 g/m*3 12.7 C 16.1 km/h
1069 14-04-2020 17:00:00 12.4 C 4.7 g/m*3 12.4 C 11.3 km/h
1070 14-04-2020 17:05:00 11.7 C 4.5 g/m*3 11.7 C 12.9 km/h
1071 14-04-2020 17:10:00 11.4 C 4.62 g/m*3 11.4 C 9.7 km/h
1072 14-04-2020 17:15:00 11.6 C 4.68 g/m*3 11.6 C 12.9 km/h
1073 14-04-2020 17:20:00 12.2 C 4.64 g/m*3 12.2 C 6.4 km/h
1074 14-04-2020 17:25:00 12.5 C 4.62 g/m*3 12.5 C 9.7 km/h
1075 14-04-2020 17:30:00 12.5 C 4.51 g/m*3 12.5 C 8.1 km/h
Sensor: Nr:Datum:Temp:Abs-Feuchte:Windchill:Wind:
Aussen-T/F 1076 14-04-2020 17:35:00 12.5 C 4.51 g/m*3 12.5 C 6.4 km/h
1077 14-04-2020 17:40:00 12.6 C 4.65 g/m*3 12.6 C 11.3 km/h
1078 14-04-2020 17:45:00 12.6 C 4.65 g/m*3 12.6 C 11.3 km/h
1079 14-04-2020 17:50:00 12.6 C 4.76 g/m*3 12.6 C 11.3 km/h
1080 14-04-2020 17:55:00 12.9 C 4.73 g/m*3 12.9 C 11.3 km/h
1081 14-04-2020 18:00:00 13 C 4.76 g/m*3 13 C 11.3 km/h
1082 14-04-2020 18:05:00 13 C 4.65 g/m*3 13 C 9.7 km/h
1083 14-04-2020 18:10:00 12.9 C 4.62 g/m*3 12.9 C 8.1 km/h
1084 14-04-2020 18:15:00 12.8 C 4.59 g/m*3 12.8 C 8.1 km/h
1085 14-04-2020 18:20:00 12.8 C 4.59 g/m*3 12.8 C 12.9 km/h
1086 14-04-2020 18:25:00 12.8 C 4.7 g/m*3 12.8 C 11.3 km/h
1087 14-04-2020 18:30:00 12.8 C 4.59 g/m*3 12.8 C 9.7 km/h
1088 14-04-2020 18:35:00 12.7 C 4.68 g/m*3 12.7 C 9.7 km/h
1089 14-04-2020 18:40:00 12.8 C 4.7 g/m*3 12.8 C 4.8 km/h
1090 14-04-2020 18:45:00 12.8 C 4.7 g/m*3 12.8 C 11.3 km/h
1091 14-04-2020 18:50:00 12.7 C 4.56 g/m*3 12.7 C 11.3 km/h
1092 14-04-2020 18:55:00 12.4 C 4.59 g/m*3 12.4 C 9.7 km/h
1093 14-04-2020 19:00:00 12.4 C 4.59 g/m*3 12.4 C 8.1 km/h
1094 14-04-2020 19:05:00 12.3 C 4.56 g/m*3 12.3 C 6.4 km/h
1095 14-04-2020 19:10:00 12.2 C 4.64 g/m*3 12.2 C 6.4 km/h
1096 14-04-2020 19:15:00 11.9 C 4.45 g/m*3 11.9 C 9.7 km/h
1097 14-04-2020 19:20:00 11.7 C 4.5 g/m*3 11.7 C 11.3 km/h
1098 14-04-2020 19:25:00 11.4 C 4.41 g/m*3 11.4 C 12.9 km/h
1099 14-04-2020 19:30:00 11.2 C 4.56 g/m*3 11.2 C 6.4 km/h
1100 14-04-2020 19:35:00 11.1 C 4.63 g/m*3 11.1 C 6.4 km/h
Sensor: Nr:Datum:Temp:Abs-Feuchte:Windchill:Wind:
Aussen-T/F 1101 14-04-2020 19:40:00 10.9 C 4.67 g/m*3 10.41 C 6.4 km/h
1102 14-04-2020 19:45:00 10.8 C 4.65 g/m*3 9.93 C 8.1 km/h
1103 14-04-2020 19:50:00 10.7 C 4.62 g/m*3 9.81 C 8.1 km/h
1104 14-04-2020 19:55:00 10.6 C 4.68 g/m*3 10.6 C 3.2 km/h
1105 14-04-2020 20:00:00 10.4 C 4.63 g/m*3 10.4 C 4.8 km/h
1106 14-04-2020 20:05:00 10.2 C 4.76 g/m*3 9.6 C 6.4 km/h
1107 14-04-2020 20:10:00 10 C 4.6 g/m*3 9.37 C 6.4 km/h
1108 14-04-2020 20:15:00 9.8 C 4.64 g/m*3 9.14 C 6.4 km/h
1109 14-04-2020 20:20:00 9.7 C 4.98 g/m*3 9.7 C 1.6 km/h
1110 14-04-2020 20:25:00 9.3 C 4.94 g/m*3 9.3 C 1.6 km/h
1111 14-04-2020 20:30:00 8.8 C 4.87 g/m*3 8.8 C 3.2 km/h
1112 14-04-2020 20:35:00 8.3 C 4.89 g/m*3 8.3 C 3.2 km/h
1113 14-04-2020 20:40:00 7.9 C 5.01 g/m*3 7.9 C 3.2 km/h
1114 14-04-2020 20:45:00 7.4 C 4.85 g/m*3 7.4 C 4.8 km/h
1115 14-04-2020 20:50:00 7.2 C 4.87 g/m*3 7.2 C 4.8 km/h
1116 14-04-2020 20:55:00 7 C 4.88 g/m*3 5.9 C 6.4 km/h
1117 14-04-2020 21:00:00 6.8 C 4.89 g/m*3 5.67 C 6.4 km/h
1118 14-04-2020 21:05:00 6.7 C 4.86 g/m*3 6.7 C 4.8 km/h
1119 14-04-2020 21:10:00 6.5 C 4.87 g/m*3 6.5 C 4.8 km/h
1120 14-04-2020 21:15:00 6.3 C 4.89 g/m*3 6.3 C 4.8 km/h
1121 14-04-2020 21:20:00 6.2 C 4.85 g/m*3 6.2 C 4.8 km/h
1122 14-04-2020 21:25:00 6.1 C 4.89 g/m*3 4.86 C 6.4 km/h
1123 14-04-2020 21:30:00 6 C 4.94 g/m*3 4.75 C 6.4 km/h
1124 14-04-2020 21:35:00 5.9 C 4.98 g/m*3 5.9 C 4.8 km/h
1125 14-04-2020 21:40:00 5.8 C 4.94 g/m*3 5.8 C 0 km/h
Sensor: Nr:Datum:Temp:Abs-Feuchte:Windchill:Wind:
Aussen-T/F 1126 14-04-2020 21:45:00 5.7 C 4.91 g/m*3 5.7 C 4.8 km/h
1127 14-04-2020 21:50:00 5.7 C 4.91 g/m*3 5.7 C 4.8 km/h
1128 14-04-2020 21:55:00 5.6 C 4.88 g/m*3 4.29 C 6.4 km/h
1129 14-04-2020 22:00:00 5.6 C 4.88 g/m*3 5.6 C 4.8 km/h
1130 14-04-2020 22:05:00 5.6 C 4.95 g/m*3 5.6 C 4.8 km/h
1131 14-04-2020 22:10:00 5.5 C 4.92 g/m*3 5.5 C 3.2 km/h
1132 14-04-2020 22:15:00 5.4 C 4.88 g/m*3 5.4 C 3.2 km/h
1133 14-04-2020 22:20:00 5.3 C 4.85 g/m*3 5.3 C 1.6 km/h
1134 14-04-2020 22:25:00 5.4 C 4.95 g/m*3 5.4 C 1.6 km/h
1135 14-04-2020 22:30:00 5.4 C 4.88 g/m*3 5.4 C 0 km/h
1136 14-04-2020 22:35:00 5.4 C 4.88 g/m*3 5.4 C 0 km/h
1137 14-04-2020 22:40:00 5.3 C 4.85 g/m*3 5.3 C 0 km/h
1138 14-04-2020 22:45:00 5.3 C 4.92 g/m*3 5.3 C 1.6 km/h
1139 14-04-2020 22:50:00 5.2 C 4.89 g/m*3 5.2 C 0 km/h
1140 14-04-2020 22:55:00 5 C 4.89 g/m*3 5 C 3.2 km/h
1141 14-04-2020 23:00:00 4.9 C 4.86 g/m*3 4.9 C 3.2 km/h
1142 14-04-2020 23:05:00 4.8 C 4.9 g/m*3 4.8 C 1.6 km/h
1143 14-04-2020 23:10:00 4.7 C 4.93 g/m*3 4.7 C 0 km/h
1144 14-04-2020 23:15:00 4.5 C 4.86 g/m*3 4.5 C 0 km/h
1145 14-04-2020 23:20:00 4.3 C 4.8 g/m*3 4.3 C 0 km/h
1146 14-04-2020 23:25:00 4.2 C 4.83 g/m*3 4.2 C 1.6 km/h
1147 14-04-2020 23:30:00 4.1 C 4.86 g/m*3 4.1 C 0 km/h
1148 14-04-2020 23:35:00 3.9 C 4.86 g/m*3 3.9 C 1.6 km/h
1149 14-04-2020 23:40:00 3.8 C 4.83 g/m*3 3.8 C 0 km/h
1150 14-04-2020 23:45:00 3.7 C 4.8 g/m*3 3.7 C 0 km/h
Sensor: Nr:Datum:Temp:Abs-Feuchte:Windchill:Wind:
Aussen-T/F 1151 14-04-2020 23:50:00 3.6 C 4.83 g/m*3 3.6 C 0 km/h
1152 14-04-2020 23:55:00 3.6 C 4.83 g/m*3 3.6 C 0 km/h
1153 15-04-2020 00:00:00 3.4 C 4.76 g/m*3 3.4 C 0 km/h
1154 15-04-2020 00:05:00 3.3 C 4.79 g/m*3 3.3 C 0 km/h
1155 15-04-2020 00:10:00 3.2 C 4.76 g/m*3 3.2 C 0 km/h
1156 15-04-2020 00:15:00 3.1 C 4.73 g/m*3 3.1 C 0 km/h
1157 15-04-2020 00:20:00 3.1 C 4.73 g/m*3 3.1 C 0 km/h
1158 15-04-2020 00:25:00 2.9 C 4.72 g/m*3 2.9 C 0 km/h
1159 15-04-2020 00:30:00 2.8 C 4.69 g/m*3 2.8 C 0 km/h
1160 15-04-2020 00:35:00 2.8 C 4.69 g/m*3 2.8 C 0 km/h
1161 15-04-2020 00:40:00 2.7 C 4.66 g/m*3 2.7 C 0 km/h
1162 15-04-2020 00:45:00 2.6 C 4.69 g/m*3 2.6 C 0 km/h
1163 15-04-2020 00:50:00 2.5 C 4.71 g/m*3 2.5 C 0 km/h
1164 15-04-2020 00:55:00 2.4 C 4.68 g/m*3 2.4 C 0 km/h
1165 15-04-2020 01:00:00 2.4 C 4.68 g/m*3 2.4 C 0 km/h
1166 15-04-2020 01:05:00 2.4 C 4.68 g/m*3 2.4 C 0 km/h
1167 15-04-2020 01:10:00 2.3 C 4.65 g/m*3 2.3 C 0 km/h
1168 15-04-2020 01:15:00 2.3 C 4.65 g/m*3 2.3 C 0 km/h
1169 15-04-2020 01:20:00 2.2 C 4.68 g/m*3 2.2 C 0 km/h
1170 15-04-2020 01:25:00 2.1 C 4.64 g/m*3 2.1 C 0 km/h
1171 15-04-2020 01:30:00 2 C 4.61 g/m*3 2 C 0 km/h
1172 15-04-2020 01:35:00 1.9 C 4.58 g/m*3 1.9 C 0 km/h
1173 15-04-2020 01:40:00 1.9 C 4.64 g/m*3 1.9 C 0 km/h
1174 15-04-2020 01:45:00 1.9 C 4.64 g/m*3 1.9 C 0 km/h
1175 15-04-2020 01:50:00 1.8 C 4.6 g/m*3 1.8 C 0 km/h
Sensor: Nr:Datum:Temp:Abs-Feuchte:Windchill:Wind:
Aussen-T/F 1176 15-04-2020 01:55:00 1.7 C 4.57 g/m*3 1.7 C 0 km/h
1177 15-04-2020 02:00:00 1.7 C 4.57 g/m*3 1.7 C 0 km/h
1178 15-04-2020 02:05:00 1.6 C 4.54 g/m*3 1.6 C 0 km/h
1179 15-04-2020 02:10:00 1.6 C 4.6 g/m*3 1.6 C 0 km/h
1180 15-04-2020 02:15:00 1.6 C 4.6 g/m*3 1.6 C 0 km/h
1181 15-04-2020 02:20:00 1.5 C 4.57 g/m*3 1.5 C 0 km/h
1182 15-04-2020 02:25:00 1.4 C 4.53 g/m*3 1.4 C 0 km/h
1183 15-04-2020 02:30:00 1.4 C 4.59 g/m*3 1.4 C 0 km/h
1184 15-04-2020 02:35:00 1.3 C 4.56 g/m*3 1.3 C 0 km/h
1185 15-04-2020 02:40:00 1.3 C 4.56 g/m*3 1.3 C 0 km/h
1186 15-04-2020 02:45:00 1.3 C 4.56 g/m*3 1.3 C 0 km/h
1187 15-04-2020 02:50:00 1.2 C 4.53 g/m*3 1.2 C 0 km/h
1188 15-04-2020 02:55:00 1.1 C 4.49 g/m*3 1.1 C 0 km/h
1189 15-04-2020 03:00:00 1.1 C 4.55 g/m*3 1.1 C 0 km/h
1190 15-04-2020 03:05:00 1.1 C 4.55 g/m*3 1.1 C 0 km/h
1191 15-04-2020 03:10:00 1 C 4.52 g/m*3 1 C 0 km/h
1192 15-04-2020 03:15:00 0.9 C 4.48 g/m*3 0.9 C 0 km/h
1193 15-04-2020 03:20:00 0.9 C 4.48 g/m*3 0.9 C 0 km/h
1194 15-04-2020 03:25:00 0.8 C 4.45 g/m*3 0.8 C 0 km/h
1195 15-04-2020 03:30:00 0.8 C 4.45 g/m*3 0.8 C 0 km/h
1196 15-04-2020 03:35:00 0.8 C 4.51 g/m*3 0.8 C 0 km/h
1197 15-04-2020 03:40:00 0.7 C 4.47 g/m*3 0.7 C 0 km/h
1198 15-04-2020 03:45:00 0.7 C 4.47 g/m*3 0.7 C 0 km/h
1199 15-04-2020 03:50:00 0.7 C 4.47 g/m*3 0.7 C 0 km/h
1200 15-04-2020 03:55:00 0.7 C 4.47 g/m*3 0.7 C 0 km/h
Sensor: Nr:Datum:Temp:Abs-Feuchte:Windchill:Wind:
Aussen-T/F 1201 15-04-2020 04:00:00 0.6 C 4.44 g/m*3 0.6 C 0 km/h
1202 15-04-2020 04:05:00 0.6 C 4.44 g/m*3 0.6 C 0 km/h
1203 15-04-2020 04:10:00 0.6 C 4.44 g/m*3 0.6 C 0 km/h
1204 15-04-2020 04:15:00 0.6 C 4.49 g/m*3 0.6 C 0 km/h
1205 15-04-2020 04:20:00 0.6 C 4.49 g/m*3 0.6 C 0 km/h
1206 15-04-2020 04:25:00 0.6 C 4.49 g/m*3 0.6 C 0 km/h
1207 15-04-2020 04:30:00 0.6 C 4.49 g/m*3 0.6 C 0 km/h
1208 15-04-2020 04:35:00 0.5 C 4.46 g/m*3 0.5 C 0 km/h
1209 15-04-2020 04:40:00 0.5 C 4.46 g/m*3 0.5 C 0 km/h
1210 15-04-2020 04:45:00 0.4 C 4.43 g/m*3 0.4 C 0 km/h
1211 15-04-2020 04:50:00 0.4 C 4.43 g/m*3 0.4 C 0 km/h
1212 15-04-2020 04:55:00 0.4 C 4.43 g/m*3 0.4 C 0 km/h
1213 15-04-2020 05:00:00 0.4 C 4.43 g/m*3 0.4 C 0 km/h
1214 15-04-2020 05:05:00 0.4 C 4.48 g/m*3 0.4 C 0 km/h
1215 15-04-2020 05:10:00 0.4 C 4.48 g/m*3 0.4 C 0 km/h
1216 15-04-2020 05:15:00 0.4 C 4.48 g/m*3 0.4 C 0 km/h
1217 15-04-2020 05:20:00 0.4 C 4.48 g/m*3 0.4 C 0 km/h
1218 15-04-2020 05:25:00 0.3 C 4.45 g/m*3 0.3 C 0 km/h
1219 15-04-2020 05:30:00 0.3 C 4.45 g/m*3 0.3 C 0 km/h
1220 15-04-2020 05:35:00 0.3 C 4.45 g/m*3 0.3 C 0 km/h
1221 15-04-2020 05:40:00 0.3 C 4.45 g/m*3 0.3 C 0 km/h
1222 15-04-2020 05:45:00 0.3 C 4.45 g/m*3 0.3 C 0 km/h
1223 15-04-2020 05:50:00 0.2 C 4.42 g/m*3 0.2 C 0 km/h
1224 15-04-2020 05:55:00 0.2 C 4.42 g/m*3 0.2 C 0 km/h
1225 15-04-2020 06:00:00 0.1 C 4.39 g/m*3 0.1 C 0 km/h
Sensor: Nr:Datum:Temp:Abs-Feuchte:Windchill:Wind:
Aussen-T/F 1226 15-04-2020 06:05:00 0.1 C 4.39 g/m*3 0.1 C 0 km/h
1227 15-04-2020 06:10:00 0.1 C 4.39 g/m*3 0.1 C 0 km/h
1228 15-04-2020 06:15:00 0.1 C 4.39 g/m*3 0.1 C 0 km/h
1229 15-04-2020 06:20:00 0.1 C 4.44 g/m*3 0.1 C 0 km/h
1230 15-04-2020 06:25:00 0.2 C 4.47 g/m*3 0.2 C 0 km/h
1231 15-04-2020 06:30:00 0.2 C 4.47 g/m*3 0.2 C 0 km/h
1232 15-04-2020 06:35:00 0.2 C 4.47 g/m*3 0.2 C 0 km/h
1233 15-04-2020 06:40:00 0.1 C 4.44 g/m*3 0.1 C 0 km/h
1234 15-04-2020 06:45:00 0.1 C 4.44 g/m*3 0.1 C 0 km/h
1235 15-04-2020 06:50:00 0 C 4.41 g/m*3 0 C 0 km/h
1236 15-04-2020 06:55:00 -0.1 C 4.38 g/m*3 -0.1 C 0 km/h
1237 15-04-2020 07:00:00 -0.1 C 4.38 g/m*3 -0.1 C 0 km/h
1238 15-04-2020 07:05:00 -0.1 C 4.38 g/m*3 -0.1 C 0 km/h
1239 15-04-2020 07:10:00 -0.1 C 4.38 g/m*3 -0.1 C 0 km/h
1240 15-04-2020 07:15:00 0 C 4.46 g/m*3 0 C 0 km/h
1241 15-04-2020 07:20:00 0.1 C 4.49 g/m*3 0.1 C 0 km/h
1242 15-04-2020 07:25:00 0.1 C 4.49 g/m*3 0.1 C 0 km/h
1243 15-04-2020 07:30:00 0.2 C 4.52 g/m*3 0.2 C 0 km/h
1244 15-04-2020 07:35:00 0.3 C 4.55 g/m*3 0.3 C 1.6 km/h
1245 15-04-2020 07:40:00 0.4 C 4.58 g/m*3 0.4 C 0 km/h
1246 15-04-2020 07:45:00 0.5 C 4.61 g/m*3 0.5 C 0 km/h
1247 15-04-2020 07:50:00 0.6 C 4.65 g/m*3 0.6 C 0 km/h
1248 15-04-2020 07:55:00 0.7 C 4.68 g/m*3 0.7 C 1.6 km/h
1249 15-04-2020 08:00:00 0.8 C 4.71 g/m*3 0.8 C 1.6 km/h
1250 15-04-2020 08:05:00 0.9 C 4.74 g/m*3 0.9 C 1.6 km/h
Sensor: Nr:Datum:Temp:Abs-Feuchte:Windchill:Wind:
Aussen-T/F 1251 15-04-2020 08:10:00 1.1 C 4.81 g/m*3 1.1 C 1.6 km/h
1252 15-04-2020 08:15:00 1.2 C 4.84 g/m*3 1.2 C 0 km/h
1253 15-04-2020 08:20:00 1.3 C 4.82 g/m*3 1.3 C 0 km/h
1254 15-04-2020 08:25:00 1.4 C 4.85 g/m*3 1.4 C 0 km/h
1255 15-04-2020 08:30:00 1.5 C 4.89 g/m*3 1.5 C 0 km/h
1256 15-04-2020 08:35:00 1.6 C 4.92 g/m*3 1.6 C 0 km/h
1257 15-04-2020 08:40:00 1.8 C 4.93 g/m*3 1.8 C 0 km/h
1258 15-04-2020 08:45:00 1.9 C 4.97 g/m*3 1.9 C 0 km/h
1259 15-04-2020 08:50:00 2.1 C 4.98 g/m*3 2.1 C 0 km/h
1260 15-04-2020 08:55:00 2.2 C 5.01 g/m*3 2.2 C 1.6 km/h
1261 15-04-2020 09:00:00 2.4 C 5.02 g/m*3 2.4 C 0 km/h
1262 15-04-2020 09:05:00 2.6 C 5.03 g/m*3 2.6 C 0 km/h
1263 15-04-2020 09:10:00 2.7 C 5.01 g/m*3 2.7 C 0 km/h
1264 15-04-2020 09:15:00 2.8 C 5.04 g/m*3 2.8 C 0 km/h
1265 15-04-2020 09:20:00 3 C 5.11 g/m*3 3 C 0 km/h
1266 15-04-2020 09:25:00 3.2 C 5.12 g/m*3 3.2 C 0 km/h
1267 15-04-2020 09:30:00 3.3 C 5.16 g/m*3 3.3 C 0 km/h
1268 15-04-2020 09:35:00 3.5 C 5.16 g/m*3 3.5 C 0 km/h
1269 15-04-2020 09:40:00 3.7 C 5.17 g/m*3 3.7 C 0 km/h
1270 15-04-2020 09:45:00 3.9 C 5.24 g/m*3 3.9 C 0 km/h
1271 15-04-2020 09:50:00 4.1 C 5.25 g/m*3 4.1 C 0 km/h
1272 15-04-2020 09:55:00 4.3 C 5.25 g/m*3 4.3 C 0 km/h
1273 15-04-2020 10:00:00 4.6 C 5.36 g/m*3 4.6 C 0 km/h
1274 15-04-2020 10:05:00 4.8 C 5.36 g/m*3 4.8 C 0 km/h
1275 15-04-2020 10:10:00 4.9 C 5.4 g/m*3 4.9 C 0 km/h
Sensor: Nr:Datum:Temp:Abs-Feuchte:Windchill:Wind:
Aussen-T/F 1276 15-04-2020 10:15:00 5.2 C 5.37 g/m*3 5.2 C 0 km/h
1277 15-04-2020 10:20:00 5.4 C 5.44 g/m*3 5.4 C 0 km/h
1278 15-04-2020 10:25:00 5.7 C 5.55 g/m*3 5.7 C 0 km/h
1279 15-04-2020 10:30:00 5.9 C 5.55 g/m*3 5.9 C 0 km/h
1280 15-04-2020 10:35:00 6.2 C 5.66 g/m*3 6.2 C 0 km/h
1281 15-04-2020 10:40:00 6.4 C 5.51 g/m*3 6.4 C 0 km/h
1282 15-04-2020 10:45:00 6.6 C 5.66 g/m*3 6.6 C 0 km/h
1283 15-04-2020 10:50:00 6.9 C 5.62 g/m*3 6.9 C 0 km/h
1284 15-04-2020 10:55:00 7.2 C 5.73 g/m*3 7.2 C 3.2 km/h
1285 15-04-2020 11:00:00 7.4 C 5.73 g/m*3 7.4 C 3.2 km/h
1286 15-04-2020 11:05:00 7.8 C 5.88 g/m*3 7.8 C 1.6 km/h
1287 15-04-2020 11:10:00 8.1 C 5.82 g/m*3 8.1 C 3.2 km/h
1288 15-04-2020 11:15:00 8.4 C 5.94 g/m*3 8.4 C 3.2 km/h
1289 15-04-2020 11:20:00 8.8 C 5.92 g/m*3 8.8 C 4.8 km/h
1290 15-04-2020 11:25:00 9.1 C 5.94 g/m*3 9.1 C 1.6 km/h
1291 15-04-2020 11:30:00 9.4 C 6.06 g/m*3 9.4 C 0 km/h
1292 15-04-2020 11:35:00 9.8 C 5.75 g/m*3 8.75 C 8.1 km/h
1293 15-04-2020 11:40:00 10.2 C 5.71 g/m*3 10.2 C 4.8 km/h
1294 15-04-2020 11:45:00 10.6 C 5.27 g/m*3 9.4 C 9.7 km/h
1295 15-04-2020 11:50:00 10.9 C 5.17 g/m*3 10.9 C 4.8 km/h
1296 15-04-2020 11:55:00 11.3 C 5.1 g/m*3 11.3 C 4.8 km/h
1297 15-04-2020 12:00:00 11.7 C 5.23 g/m*3 11.7 C 4.8 km/h
1298 15-04-2020 12:05:00 11.9 C 4.98 g/m*3 11.9 C 4.8 km/h
1299 15-04-2020 12:10:00 12.2 C 5.07 g/m*3 12.2 C 8.1 km/h
1300 15-04-2020 12:15:00 12.3 C 4.99 g/m*3 12.3 C 8.1 km/h
Sensor: Nr:Datum:Temp:Abs-Feuchte:Windchill:Wind:
Aussen-T/F 1301 15-04-2020 12:20:00 12.4 C 5.14 g/m*3 12.4 C 3.2 km/h
1302 15-04-2020 12:25:00 12.6 C 5.09 g/m*3 12.6 C 4.8 km/h
1303 15-04-2020 12:30:00 12.7 C 5.12 g/m*3 12.7 C 8.1 km/h
1304 15-04-2020 12:35:00 12.9 C 5.3 g/m*3 12.9 C 8.1 km/h
1305 15-04-2020 12:40:00 13.1 C 5.25 g/m*3 13.1 C 8.1 km/h
1306 15-04-2020 12:45:00 13.2 C 5.4 g/m*3 13.2 C 4.8 km/h
1307 15-04-2020 12:50:00 13.3 C 5.43 g/m*3 13.3 C 3.2 km/h
1308 15-04-2020 12:55:00 13.3 C 5.31 g/m*3 13.3 C 3.2 km/h
1309 15-04-2020 13:00:00 13.3 C 5.31 g/m*3 13.3 C 8.1 km/h
1310 15-04-2020 13:05:00 13.4 C 5.23 g/m*3 13.4 C 9.7 km/h
1311 15-04-2020 13:10:00 13.4 C 5.23 g/m*3 13.4 C 8.1 km/h
1312 15-04-2020 13:15:00 13.6 C 5.18 g/m*3 13.6 C 12.9 km/h
1313 15-04-2020 13:20:00 13.6 C 5.18 g/m*3 13.6 C 6.4 km/h
1314 15-04-2020 13:25:00 13.7 C 5.21 g/m*3 13.7 C 6.4 km/h
1315 15-04-2020 13:30:00 13.9 C 5.27 g/m*3 13.9 C 9.7 km/h
1316 15-04-2020 13:35:00 14.2 C 5.25 g/m*3 14.2 C 8.1 km/h
1317 15-04-2020 13:40:00 14.3 C 5.16 g/m*3 14.3 C 6.4 km/h
1318 15-04-2020 13:45:00 14.4 C 5.07 g/m*3 14.4 C 12.9 km/h
1319 15-04-2020 13:50:00 14.6 C 5.13 g/m*3 14.6 C 9.7 km/h
1320 15-04-2020 13:55:00 14.6 C 5.26 g/m*3 14.6 C 8.1 km/h
1321 15-04-2020 14:00:00 14.7 C 5.16 g/m*3 14.7 C 8.1 km/h
1322 15-04-2020 14:05:00 14.9 C 5.23 g/m*3 14.9 C 8.1 km/h
1323 15-04-2020 14:10:00 15.1 C 5.03 g/m*3 15.1 C 12.9 km/h
1324 15-04-2020 14:15:00 15.2 C 5.19 g/m*3 15.2 C 8.1 km/h
1325 15-04-2020 14:20:00 15.4 C 4.99 g/m*3 15.4 C 6.4 km/h
Sensor: Nr:Datum:Temp:Abs-Feuchte:Windchill:Wind:
Aussen-T/F 1326 15-04-2020 14:25:00 15.4 C 5.26 g/m*3 15.4 C 8.1 km/h
1327 15-04-2020 14:30:00 15.6 C 5.19 g/m*3 15.6 C 8.1 km/h
1328 15-04-2020 14:35:00 15.7 C 5.22 g/m*3 15.7 C 4.8 km/h
1329 15-04-2020 14:40:00 15.9 C 5.15 g/m*3 15.9 C 8.1 km/h
1330 15-04-2020 14:45:00 16.1 C 5.35 g/m*3 16.1 C 9.7 km/h
1331 15-04-2020 14:50:00 16.2 C 5.1 g/m*3 16.2 C 4.8 km/h
1332 15-04-2020 14:55:00 16.3 C 5.27 g/m*3 16.3 C 6.4 km/h
1333 15-04-2020 15:00:00 16.5 C 5.34 g/m*3 16.5 C 4.8 km/h
1334 15-04-2020 15:05:00 16.6 C 5.23 g/m*3 16.6 C 6.4 km/h
1335 15-04-2020 15:10:00 16.6 C 5.09 g/m*3 16.6 C 8.1 km/h
1336 15-04-2020 15:15:00 16.6 C 5.23 g/m*3 16.6 C 12.9 km/h
1337 15-04-2020 15:20:00 16.7 C 5.12 g/m*3 16.7 C 12.9 km/h
1338 15-04-2020 15:25:00 16.9 C 5.61 g/m*3 16.9 C 6.4 km/h
1339 15-04-2020 15:30:00 17.3 C 5.75 g/m*3 17.3 C 17.7 km/h
1340 15-04-2020 15:35:00 17.5 C 5.52 g/m*3 17.5 C 11.3 km/h
1341 15-04-2020 15:40:00 17.5 C 5.37 g/m*3 17.5 C 8.1 km/h
1342 15-04-2020 15:45:00 17.6 C 5.7 g/m*3 17.6 C 6.4 km/h
1343 15-04-2020 15:50:00 17.7 C 5.58 g/m*3 17.7 C 8.1 km/h
1344 15-04-2020 15:55:00 17.7 C 5.43 g/m*3 17.7 C 9.7 km/h
1345 15-04-2020 16:00:00 17.8 C 5.62 g/m*3 17.8 C 8.1 km/h
1346 15-04-2020 16:05:00 17.8 C 5.31 g/m*3 17.8 C 8.1 km/h
1347 15-04-2020 16:10:00 17.9 C 5.5 g/m*3 17.9 C 9.7 km/h
1348 15-04-2020 16:15:00 18.3 C 5.47 g/m*3 18.3 C 9.7 km/h
1349 15-04-2020 16:20:00 18.6 C 5.57 g/m*3 18.6 C 4.8 km/h
1350 15-04-2020 16:25:00 18.8 C 5.48 g/m*3 18.8 C 4.8 km/h
Sensor: Nr:Datum:Temp:Abs-Feuchte:Windchill:Wind:
Aussen-T/F 1351 15-04-2020 16:30:00 19.2 C 5.77 g/m*3 19.2 C 11.3 km/h
1352 15-04-2020 16:35:00 19.4 C 5.51 g/m*3 19.4 C 9.7 km/h
1353 15-04-2020 16:40:00 19.6 C 5.4 g/m*3 19.6 C 8.1 km/h
1354 15-04-2020 16:45:00 19.6 C 5.91 g/m*3 19.6 C 3.2 km/h
1355 15-04-2020 16:50:00 19.8 C 5.47 g/m*3 19.8 C 4.8 km/h
1356 15-04-2020 16:55:00 20.1 C 5.21 g/m*3 20.1 C 3.2 km/h
1357 15-04-2020 17:00:00 20.1 C 5.56 g/m*3 20.1 C 8.1 km/h
1358 15-04-2020 17:05:00 20.2 C 5.6 g/m*3 20.2 C 4.8 km/h
1359 15-04-2020 17:10:00 20.3 C 5.63 g/m*3 20.3 C 8.1 km/h
1360 15-04-2020 17:15:00 20.4 C 5.48 g/m*3 20.4 C 8.1 km/h
1361 15-04-2020 17:20:00 20.6 C 5.55 g/m*3 20.6 C 11.3 km/h
1362 15-04-2020 17:25:00 20.6 C 5.55 g/m*3 20.6 C 6.4 km/h
1363 15-04-2020 17:30:00 20.5 C 5.69 g/m*3 20.5 C 9.7 km/h
1364 15-04-2020 17:35:00 20.5 C 5.34 g/m*3 20.5 C 6.4 km/h
1365 15-04-2020 17:40:00 20.6 C 5.55 g/m*3 20.6 C 8.1 km/h
1366 15-04-2020 17:45:00 20.6 C 5.37 g/m*3 20.6 C 12.9 km/h
1367 15-04-2020 17:50:00 20.6 C 5.55 g/m*3 20.6 C 6.4 km/h
1368 15-04-2020 17:55:00 20.7 C 6.12 g/m*3 20.7 C 8.1 km/h
1369 15-04-2020 18:00:00 20.9 C 5.83 g/m*3 20.9 C 4.8 km/h
1370 15-04-2020 18:05:00 20.8 C 6.16 g/m*3 20.8 C 8.1 km/h
1371 15-04-2020 18:10:00 20.3 C 5.45 g/m*3 20.3 C 12.9 km/h
1372 15-04-2020 18:15:00 20.3 C 6.33 g/m*3 20.3 C 6.4 km/h
1373 15-04-2020 18:20:00 20.2 C 5.6 g/m*3 20.2 C 11.3 km/h
1374 15-04-2020 18:25:00 19.9 C 5.67 g/m*3 19.9 C 9.7 km/h
1375 15-04-2020 18:30:00 19.8 C 5.81 g/m*3 19.8 C 11.3 km/h
Sensor: Nr:Datum:Temp:Abs-Feuchte:Windchill:Wind:
Aussen-T/F 1376 15-04-2020 18:35:00 19.9 C 5.67 g/m*3 19.9 C 8.1 km/h
1377 15-04-2020 18:40:00 20.2 C 5.42 g/m*3 20.2 C 4.8 km/h
1378 15-04-2020 18:45:00 20.2 C 5.42 g/m*3 20.2 C 6.4 km/h
1379 15-04-2020 18:50:00 20.3 C 5.63 g/m*3 20.3 C 6.4 km/h
1380 15-04-2020 18:55:00 20.5 C 5.52 g/m*3 20.5 C 9.7 km/h
1381 15-04-2020 19:00:00 20.5 C 5.69 g/m*3 20.5 C 3.2 km/h
1382 15-04-2020 19:05:00 20.3 C 5.63 g/m*3 20.3 C 4.8 km/h
1383 15-04-2020 19:10:00 20.2 C 5.6 g/m*3 20.2 C 1.6 km/h
1384 15-04-2020 19:15:00 20.2 C 5.77 g/m*3 20.2 C 4.8 km/h
1385 15-04-2020 19:20:00 19.9 C 5.67 g/m*3 19.9 C 9.7 km/h
1386 15-04-2020 19:25:00 19.6 C 5.4 g/m*3 19.6 C 6.4 km/h
1387 15-04-2020 19:30:00 19.2 C 5.61 g/m*3 19.2 C 6.4 km/h
1388 15-04-2020 19:35:00 18.8 C 5.96 g/m*3 18.8 C 4.8 km/h
1389 15-04-2020 19:40:00 18.5 C 5.38 g/m*3 18.5 C 4.8 km/h
1390 15-04-2020 19:45:00 18.1 C 5.56 g/m*3 18.1 C 4.8 km/h
1391 15-04-2020 19:50:00 17.7 C 6.04 g/m*3 17.7 C 0 km/h
1392 15-04-2020 19:55:00 17.2 C 6.3 g/m*3 17.2 C 3.2 km/h
1393 15-04-2020 20:00:00 16.6 C 6.22 g/m*3 16.6 C 3.2 km/h
1394 15-04-2020 20:05:00 15.9 C 6.23 g/m*3 15.9 C 3.2 km/h
1395 15-04-2020 20:10:00 15.2 C 6.1 g/m*3 15.2 C 4.8 km/h
1396 15-04-2020 20:15:00 14.7 C 6.04 g/m*3 14.7 C 4.8 km/h
1397 15-04-2020 20:20:00 14.2 C 5.86 g/m*3 14.2 C 6.4 km/h
1398 15-04-2020 20:25:00 13.8 C 5.96 g/m*3 13.8 C 6.4 km/h
1399 15-04-2020 20:30:00 13.5 C 5.97 g/m*3 13.5 C 6.4 km/h
1400 15-04-2020 20:35:00 13.2 C 5.97 g/m*3 13.2 C 6.4 km/h
Sensor: Nr:Datum:Temp:Abs-Feuchte:Windchill:Wind:
Aussen-T/F 1401 15-04-2020 20:40:00 12.9 C 5.75 g/m*3 12.9 C 6.4 km/h
1402 15-04-2020 20:45:00 12.7 C 5.68 g/m*3 12.7 C 6.4 km/h
1403 15-04-2020 20:50:00 12.5 C 5.72 g/m*3 12.5 C 6.4 km/h
1404 15-04-2020 20:55:00 12.4 C 5.79 g/m*3 12.4 C 6.4 km/h
1405 15-04-2020 21:00:00 12.2 C 5.94 g/m*3 12.2 C 3.2 km/h
1406 15-04-2020 21:05:00 11.9 C 5.93 g/m*3 11.9 C 4.8 km/h
1407 15-04-2020 21:10:00 11.7 C 5.96 g/m*3 11.7 C 4.8 km/h
1408 15-04-2020 21:15:00 11.4 C 5.85 g/m*3 11.4 C 4.8 km/h
1409 15-04-2020 21:20:00 11.3 C 5.92 g/m*3 11.3 C 4.8 km/h
1410 15-04-2020 21:25:00 11.2 C 5.88 g/m*3 11.2 C 4.8 km/h
1411 15-04-2020 21:30:00 11.1 C 6.04 g/m*3 11.1 C 4.8 km/h
1412 15-04-2020 21:35:00 10.9 C 5.97 g/m*3 10.9 C 3.2 km/h
1413 15-04-2020 21:40:00 10.7 C 5.99 g/m*3 10.7 C 1.6 km/h
1414 15-04-2020 21:45:00 10.4 C 5.88 g/m*3 10.4 C 1.6 km/h
1415 15-04-2020 21:50:00 10.3 C 6.03 g/m*3 10.3 C 3.2 km/h
1416 15-04-2020 21:55:00 10.1 C 6.05 g/m*3 10.1 C 0 km/h
1417 15-04-2020 22:00:00 9.8 C 6.03 g/m*3 9.8 C 3.2 km/h
1418 15-04-2020 22:05:00 9.6 C 5.95 g/m*3 9.6 C 0 km/h
1419 15-04-2020 22:10:00 9.5 C 6.01 g/m*3 9.5 C 3.2 km/h
1420 15-04-2020 22:15:00 9.4 C 6.06 g/m*3 9.4 C 1.6 km/h
1421 15-04-2020 22:20:00 9.3 C 6.02 g/m*3 9.3 C 0 km/h
1422 15-04-2020 22:25:00 9.2 C 6.07 g/m*3 9.2 C 0 km/h
1423 15-04-2020 22:30:00 9.1 C 6.03 g/m*3 9.1 C 0 km/h
1424 15-04-2020 22:35:00 8.9 C 5.96 g/m*3 8.9 C 0 km/h
1425 15-04-2020 22:40:00 8.8 C 5.83 g/m*3 8.8 C 0 km/h
Sensor: Nr:Datum:Temp:Abs-Feuchte:Windchill:Wind:
Aussen-T/F 1426 15-04-2020 22:45:00 8.7 C 5.79 g/m*3 8.7 C 0 km/h
1427 15-04-2020 22:50:00 8.6 C 5.84 g/m*3 8.6 C 0 km/h
1428 15-04-2020 22:55:00 8.4 C 5.85 g/m*3 8.4 C 0 km/h
1429 15-04-2020 23:00:00 8.3 C 5.9 g/m*3 8.3 C 0 km/h
1430 15-04-2020 23:05:00 8.1 C 5.74 g/m*3 8.1 C 0 km/h
1431 15-04-2020 23:10:00 7.9 C 5.75 g/m*3 7.9 C 0 km/h
1432 15-04-2020 23:15:00 7.8 C 5.71 g/m*3 7.8 C 0 km/h
1433 15-04-2020 23:20:00 7.8 C 5.71 g/m*3 7.8 C 0 km/h
1434 15-04-2020 23:25:00 7.7 C 5.68 g/m*3 7.7 C 0 km/h
1435 15-04-2020 23:30:00 7.6 C 5.8 g/m*3 7.6 C 0 km/h
1436 15-04-2020 23:35:00 7.5 C 5.68 g/m*3 7.5 C 0 km/h
1437 15-04-2020 23:40:00 7.3 C 5.61 g/m*3 7.3 C 0 km/h
1438 15-04-2020 23:45:00 7.3 C 5.69 g/m*3 7.3 C 0 km/h
1439 15-04-2020 23:50:00 7.2 C 5.73 g/m*3 7.2 C 0 km/h
1440 15-04-2020 23:55:00 7.1 C 5.69 g/m*3 7.1 C 0 km/h

Legende:
   Min
   Max


Maximal/Minimal-Werte vom 11.04.2020 - 15.04.2020

Sensor Min Max Avg
Temp
(Aussen-T/F)
-0.1 °C
15-04-2020  06:55:00
24.9 °C
11-04-2020  16:55:00
10.68 °C
Abs-Feuchte
(Aussen-T/F)
3.92 g/m*3
13-04-2020  21:35:00
9.84 g/m*3
12-04-2020  11:30:00
5.94 g/m*3
Windchill
(Aussen-T/F)
-0.1 C
15-04-2020  06:55:00
24.9 C
11-04-2020  16:55:00
10.47 C

Die Daten stammen von einer Davis Vantage Pro 2 Wetter-Station und werden unter Linux mit der Software wview2wettercgi und aufbereitet. Alle Angaben erfolgen ohne Gewähr für ihre Vollständigkeit oder Richtigkeit.
Kontakt: Rainer Krienke krienke@uni-koblenz.de . Meine Webseiten an der Uni Koblenz oder privat.
Version: $Revision: 0.78 $